Observation data for Dell City 1N on 03/23/2019      Previous  Date  Next       Current Mesonet Observations  Soil Data  Daily Summary Page  Observations in Plain Language
KDC1 230500Z 26008KT 12/M05 A3003 RMK A01 T01151052  RH  031%=      5-min Rain = 0
KDC1 230501Z 27008KT 12/M06 A3003 RMK A01 T01151055  RH  030%=      5-min Rain = 0
KDC1 230502Z 27007KT 12/M06 A3003 RMK A01 T01151057  RH  029%=      5-min Rain = 0
KDC1 230503Z 27007KT 11/M06 A3003 RMK A01 T01141060  RH  029%=      5-min Rain = 0
KDC1 230504Z 27007KT 11/M06 A3003 RMK A01 T01131061  RH  029%=      5-min Rain = 0
KDC1 230505Z 28007KT 11/M06 A3003 RMK A01 T01121063  RH  029%=      5-min Rain = 0
KDC1 230506Z 28007KT 11/M07 A3003 RMK A01 T01121065  RH  028%=      5-min Rain = 0
KDC1 230507Z 28007KT 11/M07 A3003 RMK A01 T01111066  RH  028%=      5-min Rain = 0
KDC1 230508Z 29005KT 11/M06 A3003 RMK A01 T01101063  RH  029%=      5-min Rain = 0
KDC1 230509Z 30005KT 11/M05 A3003 RMK A01 T01051054  RH  032%=      5-min Rain = 0
KDC1 230510Z 30006KT 10/M05 A3004 RMK A01 T01001053  RH  033%=      5-min Rain = 0
KDC1 230511Z 30007KT 10/M05 A3004 RMK A01 T00991054  RH  034%=      5-min Rain = 0
KDC1 230512Z 30006KT 10/M06 A3003 RMK A01 T00981055  RH  033%=      5-min Rain = 0
KDC1 230513Z 30006KT 10/M06 A3003 RMK A01 T00991057  RH  033%=      5-min Rain = 0
KDC1 230514Z 30007KT 10/M06 A3003 RMK A01 T00991059  RH  032%=      5-min Rain = 0
KDC1 230515Z 30007KT 10/M06 A3003 RMK A01 T01011061  RH  032%=      5-min Rain = 0
KDC1 230516Z 29008KT 10/M06 A3004 RMK A01 T01021061  RH  031%=      5-min Rain = 0
KDC1 230517Z 28008KT 10/M06 A3003 RMK A01 T01031063  RH  031%=      5-min Rain = 0
KDC1 230518Z 28009KT 10/M07 A3004 RMK A01 T01041066  RH  029%=      5-min Rain = 0
KDC1 230519Z 28009KT 11/M07 A3004 RMK A01 T01071070  RH  028%=      5-min Rain = 0
KDC1 230520Z 27008KT 11/M07 A3004 RMK A01 T01091070  RH  028%=      5-min Rain = 0
KDC1 230521Z 26008KT 11/M07 A3003 RMK A01 T01091071  RH  028%=      5-min Rain = 0
KDC1 230522Z 26007KT 11/M07 A3003 RMK A01 T01121073  RH  027%=      5-min Rain = 0
KDC1 230523Z 25009KT 12/M08 A3004 RMK A01 T01181079  RH  025%=      5-min Rain = 0
KDC1 230524Z 25009KT 13/M09 A3003 RMK A01 T01281086  RH  022%=      5-min Rain = 0
KDC1 230525Z 25010KT 14/M09 A3003 RMK A01 T01351087  RH  021%=      5-min Rain = 0
KDC1 230526Z 25007KT 14/M09 A3003 RMK A01 T01371086  RH  020%=      5-min Rain = 0
KDC1 230527Z 25007KT 14/M08 A3004 RMK A01 T01361081  RH  021%=      5-min Rain = 0
KDC1 230528Z 26008KT 13/M08 A3004 RMK A01 T01341080  RH  022%=      5-min Rain = 0
KDC1 230529Z 25007KT 13/M08 A3004 RMK A01 T01331083  RH  021%=      5-min Rain = 0
KDC1 230530Z 25007KT 13/M09 A3004 RMK A01 T01341085  RH  021%=      5-min Rain = 0
KDC1 230531Z 25007KT 14/M09 A3004 RMK A01 T01351085  RH  021%=      5-min Rain = 0
KDC1 230532Z 26007KT 14/M09 A3004 RMK A01 T01351086  RH  021%=      5-min Rain = 0
KDC1 230533Z 26007KT 14/M08 A3004 RMK A01 T01351082  RH  021%=      5-min Rain = 0
KDC1 230534Z 26007KT 13/M08 A3004 RMK A01 T01341082  RH  021%=      5-min Rain = 0
KDC1 230535Z 26006KT 13/M08 A3004 RMK A01 T01331081  RH  022%=      5-min Rain = 0
KDC1 230536Z 26007KT 13/M07 A3004 RMK A01 T01291071  RH  024%=      5-min Rain = 0
KDC1 230537Z 25007KT 12/M07 A3004 RMK A01 T01231067  RH  026%=      5-min Rain = 0
KDC1 230538Z 24007KT 12/M07 A3004 RMK A01 T01201071  RH  026%=      5-min Rain = 0
KDC1 230539Z 25008KT 12/M08 A3004 RMK A01 T01221076  RH  024%=      5-min Rain = 0
KDC1 230540Z 25008KT 13/M08 A3004 RMK A01 T01261078  RH  023%=      5-min Rain = 0
KDC1 230541Z 25006KT 13/M08 A3004 RMK A01 T01291081  RH  022%=      5-min Rain = 0
KDC1 230542Z 24005KT 13/M08 A3004 RMK A01 T01321081  RH  022%=      5-min Rain = 0
KDC1 230543Z 25003KT 13/M08 A3005 RMK A01 T01321083  RH  022%=      5-min Rain = 0
KDC1 230544Z 06005KT 13/M08 A3005 RMK A01 T01311077  RH  023%=      5-min Rain = 0
KDC1 230545Z 06007KT 12/M07 A3005 RMK A01 T01221074  RH  025%=      5-min Rain = 0
KDC1 230546Z 05006KT 11/M07 A3005 RMK A01 T01111070  RH  028%=      5-min Rain = 0
KDC1 230547Z 04006KT 10/M07 A3005 RMK A01 T01041070  RH  029%=      5-min Rain = 0
KDC1 230548Z 03007KT 10/M07 A3005 RMK A01 T01021072  RH  029%=      5-min Rain = 0
KDC1 230549Z 04008KT 10/M07 A3005 RMK A01 T01021072  RH  029%=      5-min Rain = 0
KDC1 230550Z 03006KT 10/M08 A3005 RMK A01 T01021077  RH  028%=      5-min Rain = 0
KDC1 230551Z 03003KT 11/M08 A3005 RMK A01 T01051080  RH  026%=      5-min Rain = 0
KDC1 230552Z 03002KT 11/M08 A3005 RMK A01 T01061081  RH  026%=      5-min Rain = 0
KDC1 230553Z 03001KT 11/M08 A3005 RMK A01 T01071082  RH  026%=      5-min Rain = 0
KDC1 230554Z 14000KT 11/M08 A3005 RMK A01 T01091084  RH  025%=      5-min Rain = 0
KDC1 230555Z 14002KT 11/M08 A3005 RMK A01 T01111075  RH  027%=      5-min Rain = 0
KDC1 230556Z 14003KT 11/M07 A3005 RMK A01 T01071065  RH  029%=      5-min Rain = 0
KDC1 230557Z 15004KT 10/M06 A3005 RMK A01 T01031063  RH  030%=      5-min Rain = 0
KDC1 230558Z 16006KT 10/M06 A3005 RMK A01 T01001057  RH  033%=      5-min Rain = 0
KDC1 230559Z 17006KT 10/M06 A3005 RMK A01 T00971056  RH  033%=      5-min Rain = 0
KDC1 230600Z 18006KT 10/M06 A3005 RMK A01 T00971060  RH  033%=      5-min Rain = 0
KDC1 230601Z 16007KT 10/M07 A3005 RMK A01 T00981065  RH  031%=      5-min Rain = 0
KDC1 230602Z 14007KT 10/M05 A3005 RMK A01 T01001051  RH  034%=      5-min Rain = 0
KDC1 230603Z 15008KT 10/M05 A3005 RMK A01 T00991050  RH  034%=      5-min Rain = 0
KDC1 230604Z 15007KT 10/M05 A3005 RMK A01 T01001050  RH  034%=      5-min Rain = 0
KDC1 230605Z 17005KT 10/M05 A3005 RMK A01 T01011054  RH  033%=      5-min Rain = 0
KDC1 230606Z 17003KT 10/M06 A3005 RMK A01 T01031058  RH  032%=      5-min Rain = 0
KDC1 230607Z 16003KT 10/M06 A3005 RMK A01 T01031058  RH  032%=      5-min Rain = 0
KDC1 230608Z 15004KT 11/M06 A3005 RMK A01 T01051064  RH  030%=      5-min Rain = 0
KDC1 230609Z 14005KT 11/M06 A3005 RMK A01 T01071060  RH  030%=      5-min Rain = 0
KDC1 230610Z 13006KT 11/M05 A3005 RMK A01 T01071054  RH  032%=      5-min Rain = 0
KDC1 230611Z 13005KT 11/M05 A3005 RMK A01 T01071051  RH  032%=      5-min Rain = 0
KDC1 230612Z 12004KT 11/M05 A3005 RMK A01 T01071052  RH  032%=      5-min Rain = 0
KDC1 230613Z 11004KT 11/M05 A3005 RMK A01 T01061051  RH  033%=      5-min Rain = 0
KDC1 230614Z 10004KT 11/M05 A3005 RMK A01 T01051047  RH  034%=      5-min Rain = 0
KDC1 230615Z 09003KT 10/M05 A3005 RMK A01 T01021051  RH  034%=      5-min Rain = 0
KDC1 230616Z 08004KT 10/M05 A3005 RMK A01 T01001053  RH  034%=      5-min Rain = 0
KDC1 230617Z 08005KT 10/M05 A3005 RMK A01 T01001052  RH  034%=      5-min Rain = 0
KDC1 230618Z 08006KT 10/M05 A3005 RMK A01 T00991052  RH  034%=      5-min Rain = 0
KDC1 230619Z 10003KT 10/M05 A3005 RMK A01 T01001053  RH  034%=      5-min Rain = 0
KDC1 230620Z 18002KT 10/M05 A3005 RMK A01 T01011052  RH  034%=      5-min Rain = 0
KDC1 230621Z 18002KT 10/M05 A3005 RMK A01 T00991050  RH  034%=      5-min Rain = 0
KDC1 230622Z 20002KT 10/M06 A3005 RMK A01 T00991056  RH  033%=      5-min Rain = 0
KDC1 230623Z 23001KT 10/M06 A3005 RMK A01 T01021063  RH  031%=      5-min Rain = 0
KDC1 230624Z 23002KT 11/M06 A3005 RMK A01 T01051062  RH  030%=      5-min Rain = 0
KDC1 230625Z 18001KT 11/M07 A3005 RMK A01 T01071067  RH  029%=      5-min Rain = 0
KDC1 230626Z 13002KT 11/M07 A3005 RMK A01 T01081072  RH  028%=      5-min Rain = 0
KDC1 230627Z 13002KT 11/M08 A3005 RMK A01 T01111075  RH  026%=      5-min Rain = 0
KDC1 230628Z 10001KT 12/M08 A3005 RMK A01 T01161078  RH  025%=      5-min Rain = 0
KDC1 230629Z 34004KT 12/M07 A3005 RMK A01 T01171073  RH  026%=      5-min Rain = 0
KDC1 230630Z 01003KT 12/M08 A3005 RMK A01 T01171078  RH  025%=      5-min Rain = 0
KDC1 230631Z 07001KT 12/M09 A3005 RMK A01 T01221088  RH  022%=      5-min Rain = 0
KDC1 230632Z 06001KT 13/M09 A3005 RMK A01 T01281088  RH  021%=      5-min Rain = 0
KDC1 230633Z 13000KT 13/M09 A3005 RMK A01 T01301086  RH  021%=      5-min Rain = 0
KDC1 230634Z 19001KT 13/M08 A3005 RMK A01 T01311083  RH  022%=      5-min Rain = 0
KDC1 230635Z 17001KT 13/M08 A3005 RMK A01 T01281081  RH  023%=      5-min Rain = 0
KDC1 230636Z 16002KT 13/M08 A3005 RMK A01 T01251081  RH  023%=      5-min Rain = 0
KDC1 230637Z 17002KT 12/M09 A3005 RMK A01 T01241085  RH  022%=      5-min Rain = 0
KDC1 230638Z 20002KT 13/M08 A3005 RMK A01 T01261082  RH  023%=      5-min Rain = 0
KDC1 230639Z 22002KT 12/M08 A3005 RMK A01 T01221075  RH  025%=      5-min Rain = 0
KDC1 230640Z 23002KT 11/M07 A3005 RMK A01 T01121067  RH  028%=      5-min Rain = 0
KDC1 230641Z 21002KT 11/M07 A3005 RMK A01 T01061067  RH  029%=      5-min Rain = 0
KDC1 230642Z 20002KT 11/M07 A3005 RMK A01 T01061070  RH  028%=      5-min Rain = 0
KDC1 230643Z 18002KT 11/M08 A3005 RMK A01 T01091076  RH  026%=      5-min Rain = 0
KDC1 230644Z 17002KT 11/M08 A3005 RMK A01 T01111077  RH  026%=      5-min Rain = 0
KDC1 230645Z 15003KT 11/M07 A3005 RMK A01 T01131073  RH  026%=      5-min Rain = 0
KDC1 230646Z 13005KT 11/M07 A3005 RMK A01 T01121072  RH  027%=      5-min Rain = 0
KDC1 230647Z 14005KT 11/M07 A3005 RMK A01 T01101068  RH  028%=      5-min Rain = 0
KDC1 230648Z 14005KT 11/M07 A3005 RMK A01 T01081069  RH  028%=      5-min Rain = 0
KDC1 230649Z 14005KT 11/M07 A3005 RMK A01 T01071068  RH  029%=      5-min Rain = 0
KDC1 230650Z 14004KT 11/M07 A3005 RMK A01 T01061066  RH  029%=      5-min Rain = 0
KDC1 230651Z 15003KT 10/M06 A3005 RMK A01 T01041064  RH  030%=      5-min Rain = 0
KDC1 230652Z 15003KT 10/M06 A3005 RMK A01 T01031064  RH  030%=      5-min Rain = 0
KDC1 230653Z 14004KT 10/M06 A3005 RMK A01 T01031063  RH  031%=      5-min Rain = 0
KDC1 230654Z 13004KT 10/M06 A3005 RMK A01 T01021062  RH  031%=      5-min Rain = 0
KDC1 230655Z 13004KT 10/M06 A3005 RMK A01 T01011059  RH  032%=      5-min Rain = 0
KDC1 230656Z 13003KT 10/M06 A3005 RMK A01 T01011063  RH  031%=      5-min Rain = 0
KDC1 230657Z 10002KT 10/M06 A3005 RMK A01 T01001059  RH  032%=      5-min Rain = 0
KDC1 230658Z 08002KT 10/M07 A3005 RMK A01 T00951066  RH  032%=      5-min Rain = 0
KDC1 230659Z 07001KT 09/M07 A3006 RMK A01 T00941071  RH  030%=      5-min Rain = 0
KDC1 230700Z 08001KT 10/M07 A3005 RMK A01 T00951071  RH  030%=      5-min Rain = 0
KDC1 230701Z 12001KT 09/M07 A3005 RMK A01 T00941072  RH  030%=      5-min Rain = 0
KDC1 230702Z 16001KT 10/M07 A3005 RMK A01 T00951073  RH  030%=      5-min Rain = 0
KDC1 230703Z 18002KT 10/M07 A3005 RMK A01 T00951070  RH  030%=      5-min Rain = 0
KDC1 230704Z 18003KT 09/M07 A3005 RMK A01 T00941071  RH  031%=      5-min Rain = 0
KDC1 230705Z 19003KT 10/M07 A3005 RMK A01 T00951071  RH  030%=      5-min Rain = 0
KDC1 230706Z 19002KT 10/M07 A3005 RMK A01 T00961071  RH  030%=      5-min Rain = 0
KDC1 230707Z 17001KT 10/M07 A3005 RMK A01 T00961070  RH  030%=      5-min Rain = 0
KDC1 230708Z 15002KT 10/M07 A3005 RMK A01 T00961070  RH  030%=      5-min Rain = 0
KDC1 230709Z 16001KT 10/M07 A3005 RMK A01 T00971069  RH  030%=      5-min Rain = 0
KDC1 230710Z 14002KT 10/M07 A3005 RMK A01 T00961069  RH  031%=      5-min Rain = 0
KDC1 230711Z 13000KT 10/M07 A3005 RMK A01 T00991071  RH  029%=      5-min Rain = 0
KDC1 230712Z 29003KT 10/M07 A3005 RMK A01 T00961071  RH  030%=      5-min Rain = 0
KDC1 230713Z 27002KT 08/M07 A3005 RMK A01 T00841072  RH  032%=      5-min Rain = 0
KDC1 230714Z 24003KT 08/M07 A3005 RMK A01 T00781071  RH  034%=      5-min Rain = 0
KDC1 230715Z 23004KT 08/M07 A3005 RMK A01 T00791071  RH  034%=      5-min Rain = 0
KDC1 230716Z 22003KT 08/M07 A3005 RMK A01 T00841070  RH  033%=      5-min Rain = 0
KDC1 230717Z 24003KT 09/M07 A3005 RMK A01 T00861070  RH  033%=      5-min Rain = 0
KDC1 230718Z 23004KT 09/M07 A3005 RMK A01 T00861069  RH  033%=      5-min Rain = 0
KDC1 230719Z 21004KT 09/M07 A3005 RMK A01 T00901067  RH  032%=      5-min Rain = 0
KDC1 230720Z 24003KT 09/M07 A3005 RMK A01 T00911066  RH  032%=      5-min Rain = 0
KDC1 230721Z 27004KT 09/M07 A3005 RMK A01 T00931066  RH  032%=      5-min Rain = 0
KDC1 230722Z 28004KT 09/M07 A3005 RMK A01 T00941069  RH  031%=      5-min Rain = 0
KDC1 230723Z 29003KT 10/M07 A3005 RMK A01 T00971071  RH  030%=      5-min Rain = 0
KDC1 230724Z 29003KT 10/M07 A3005 RMK A01 T00961070  RH  030%=      5-min Rain = 0
KDC1 230725Z 31003KT 09/M07 A3005 RMK A01 T00911067  RH  032%=      5-min Rain = 0
KDC1 230726Z 32004KT 09/M07 A3005 RMK A01 T00851069  RH  033%=      5-min Rain = 0
KDC1 230727Z 32005KT 09/M07 A3005 RMK A01 T00851071  RH  032%=      5-min Rain = 0
KDC1 230728Z 31004KT 09/M07 A3005 RMK A01 T00851071  RH  032%=      5-min Rain = 0
KDC1 230729Z 30004KT 08/M07 A3005 RMK A01 T00831070  RH  033%=      5-min Rain = 0
KDC1 230730Z 30005KT 08/M07 A3006 RMK A01 T00781070  RH  034%=      5-min Rain = 0
KDC1 230731Z 29005KT 07/M07 A3005 RMK A01 T00741069  RH  036%=      5-min Rain = 0
KDC1 230732Z 30006KT 07/M06 A3006 RMK A01 T00711064  RH  037%=      5-min Rain = 0
KDC1 230733Z 30006KT 07/M06 A3006 RMK A01 T00691058  RH  040%=      5-min Rain = 0
KDC1 230734Z 30005KT 07/M05 A3005 RMK A01 T00681051  RH  043%=      5-min Rain = 0
KDC1 230735Z 29005KT 07/M05 A3005 RMK A01 T00681048  RH  043%=      5-min Rain = 0
KDC1 230736Z 29005KT 07/M05 A3005 RMK A01 T00681047  RH  044%=      5-min Rain = 0
KDC1 230737Z 29005KT 07/M05 A3005 RMK A01 T00691045  RH  044%=      5-min Rain = 0
KDC1 230738Z 29005KT 07/M05 A3005 RMK A01 T00711046  RH  043%=      5-min Rain = 0
KDC1 230739Z 30006KT 07/M05 A3005 RMK A01 T00731047  RH  042%=      5-min Rain = 0
KDC1 230740Z 30007KT 07/M05 A3005 RMK A01 T00731046  RH  043%=      5-min Rain = 0
KDC1 230741Z 31008KT 07/M05 A3005 RMK A01 T00701045  RH  044%=      5-min Rain = 0
KDC1 230742Z 31009KT 07/M05 A3005 RMK A01 T00701050  RH  042%=      5-min Rain = 0
KDC1 230743Z 31010KT 07/M05 A3005 RMK A01 T00741052  RH  040%=      5-min Rain = 0
KDC1 230744Z 31010KT 08/M06 A3006 RMK A01 T00751055  RH  039%=      5-min Rain = 0
KDC1 230745Z 31011KT 08/M06 A3006 RMK A01 T00751057  RH  038%=      5-min Rain = 0
KDC1 230746Z 31010KT 08/M06 A3006 RMK A01 T00761058  RH  038%=      5-min Rain = 0
KDC1 230747Z 31010KT 08/M06 A3006 RMK A01 T00761061  RH  037%=      5-min Rain = 0
KDC1 230748Z 32010KT 08/M07 A3006 RMK A01 T00791065  RH  035%=      5-min Rain = 0
KDC1 230749Z 32010KT 08/M07 A3006 RMK A01 T00831068  RH  034%=      5-min Rain = 0
KDC1 230750Z 32010KT 09/M07 A3006 RMK A01 T00871069  RH  032%=      5-min Rain = 0
KDC1 230751Z 33010KT 09/M07 A3006 RMK A01 T00881071  RH  032%=      5-min Rain = 0
KDC1 230752Z 32010KT 09/M07 A3006 RMK A01 T00891072  RH  031%=      5-min Rain = 0
KDC1 230753Z 32009KT 09/M07 A3006 RMK A01 T00891073  RH  031%=      5-min Rain = 0
KDC1 230754Z 32009KT 09/M07 A3006 RMK A01 T00891074  RH  031%=      5-min Rain = 0
KDC1 230755Z 32009KT 09/M08 A3005 RMK A01 T00901075  RH  030%=      5-min Rain = 0
KDC1 230756Z 32009KT 09/M08 A3005 RMK A01 T00901075  RH  030%=      5-min Rain = 0
KDC1 230757Z 32010KT 09/M08 A3005 RMK A01 T00911075  RH  030%=      5-min Rain = 0
KDC1 230758Z 32009KT 09/M08 A3005 RMK A01 T00911075  RH  030%=      5-min Rain = 0
KDC1 230759Z 31009KT 09/M08 A3005 RMK A01 T00901075  RH  030%=      5-min Rain = 0
KDC1 230800Z 31010KT 09/M08 A3005 RMK A01 T00901075  RH  030%=      5-min Rain = 0
KDC1 230801Z 32010KT 09/M08 A3005 RMK A01 T00891075  RH  031%=      5-min Rain = 0
KDC1 230802Z 32011KT 09/M07 A3005 RMK A01 T00891074  RH  031%=      5-min Rain = 0
KDC1 230803Z 32011KT 09/M08 A3005 RMK A01 T00891075  RH  031%=      5-min Rain = 0
KDC1 230804Z 32011KT 09/M08 A3005 RMK A01 T00891075  RH  031%=      5-min Rain = 0
KDC1 230805Z 32010KT 09/M07 A3005 RMK A01 T00891074  RH  031%=      5-min Rain = 0
KDC1 230806Z 32010KT 09/M07 A3005 RMK A01 T00871073  RH  031%=      5-min Rain = 0
KDC1 230807Z 32010KT 09/M07 A3005 RMK A01 T00851073  RH  032%=      5-min Rain = 0
KDC1 230808Z 32009KT 08/M07 A3005 RMK A01 T00841072  RH  032%=      5-min Rain = 0
KDC1 230809Z 32009KT 08/M07 A3005 RMK A01 T00831071  RH  033%=      5-min Rain = 0
KDC1 230810Z 31008KT 08/M07 A3005 RMK A01 T00821071  RH  033%=      5-min Rain = 0
KDC1 230811Z 31008KT 08/M07 A3005 RMK A01 T00811070  RH  034%=      5-min Rain = 0
KDC1 230812Z 31008KT 08/M07 A3005 RMK A01 T00801071  RH  033%=      5-min Rain = 0
KDC1 230813Z 31008KT 08/M07 A3005 RMK A01 T00811073  RH  033%=      5-min Rain = 0
KDC1 230814Z 31008KT 08/M07 A3005 RMK A01 T00821073  RH  032%=      5-min Rain = 0
KDC1 230815Z 31010KT 08/M07 A3005 RMK A01 T00831073  RH  032%=      5-min Rain = 0
KDC1 230816Z 31010KT 08/M07 A3005 RMK A01 T00821072  RH  033%=      5-min Rain = 0
KDC1 230817Z 31010KT 08/M07 A3005 RMK A01 T00801071  RH  033%=      5-min Rain = 0
KDC1 230818Z 31010KT 08/M07 A3005 RMK A01 T00781070  RH  034%=      5-min Rain = 0
KDC1 230819Z 31009KT 08/M07 A3005 RMK A01 T00751068  RH  035%=      5-min Rain = 0
KDC1 230820Z 31009KT 07/M06 A3005 RMK A01 T00721064  RH  037%=      5-min Rain = 0
KDC1 230821Z 31008KT 07/M06 A3005 RMK A01 T00701062  RH  038%=      5-min Rain = 0
KDC1 230822Z 31008KT 07/M06 A3005 RMK A01 T00691060  RH  039%=      5-min Rain = 0
KDC1 230823Z 31008KT 07/M06 A3005 RMK A01 T00671059  RH  040%=      5-min Rain = 0
KDC1 230824Z 31008KT 07/M06 A3005 RMK A01 T00671059  RH  040%=      5-min Rain = 0
KDC1 230825Z 32009KT 07/M06 A3005 RMK A01 T00661059  RH  041%=      5-min Rain = 0
KDC1 230826Z 31009KT 07/M06 A3005 RMK A01 T00651059  RH  041%=      5-min Rain = 0
KDC1 230827Z 31009KT 07/M06 A3005 RMK A01 T00651059  RH  041%=      5-min Rain = 0
KDC1 230828Z 31009KT 07/M06 A3005 RMK A01 T00661060  RH  040%=      5-min Rain = 0
KDC1 230829Z 31008KT 07/M06 A3005 RMK A01 T00671063  RH  039%=      5-min Rain = 0
KDC1 230830Z 32008KT 07/M06 A3005 RMK A01 T00681063  RH  039%=      5-min Rain = 0
KDC1 230831Z 32008KT 07/M07 A3005 RMK A01 T00681065  RH  038%=      5-min Rain = 0
KDC1 230832Z 32008KT 07/M07 A3005 RMK A01 T00701067  RH  037%=      5-min Rain = 0
KDC1 230833Z 31008KT 07/M07 A3005 RMK A01 T00741070  RH  035%=      5-min Rain = 0
KDC1 230834Z 32008KT 08/M07 A3005 RMK A01 T00761070  RH  035%=      5-min Rain = 0
KDC1 230835Z 32008KT 08/M07 A3005 RMK A01 T00771073  RH  034%=      5-min Rain = 0
KDC1 230836Z 31008KT 08/M08 A3005 RMK A01 T00801075  RH  033%=      5-min Rain = 0
KDC1 230837Z 31007KT 08/M08 A3005 RMK A01 T00821076  RH  032%=      5-min Rain = 0
KDC1 230838Z 31007KT 09/M08 A3005 RMK A01 T00851077  RH  031%=      5-min Rain = 0
KDC1 230839Z 32007KT 09/M08 A3005 RMK A01 T00861077  RH  031%=      5-min Rain = 0
KDC1 230840Z 32006KT 09/M08 A3005 RMK A01 T00861077  RH  031%=      5-min Rain = 0
KDC1 230841Z 32006KT 09/M08 A3005 RMK A01 T00861076  RH  031%=      5-min Rain = 0
KDC1 230842Z 31006KT 09/M08 A3005 RMK A01 T00851075  RH  031%=      5-min Rain = 0
KDC1 230843Z 31007KT 08/M07 A3005 RMK A01 T00841074  RH  032%=      5-min Rain = 0
KDC1 230844Z 31007KT 08/M07 A3005 RMK A01 T00811073  RH  033%=      5-min Rain = 0
KDC1 230845Z 31007KT 08/M07 A3005 RMK A01 T00781071  RH  034%=      5-min Rain = 0
KDC1 230846Z 30007KT 08/M07 A3005 RMK A01 T00751070  RH  035%=      5-min Rain = 0
KDC1 230847Z 31007KT 07/M07 A3005 RMK A01 T00721069  RH  036%=      5-min Rain = 0
KDC1 230848Z 31006KT 07/M07 A3005 RMK A01 T00691068  RH  037%=      5-min Rain = 0
KDC1 230849Z 31006KT 07/M07 A3005 RMK A01 T00671066  RH  038%=      5-min Rain = 0
KDC1 230850Z 31005KT 07/M06 A3005 RMK A01 T00671064  RH  039%=      5-min Rain = 0
KDC1 230851Z 32005KT 07/M06 A3005 RMK A01 T00651064  RH  039%=      5-min Rain = 0
KDC1 230852Z 32005KT 06/M06 A3005 RMK A01 T00641063  RH  040%=      5-min Rain = 0
KDC1 230853Z 31006KT 06/M06 A3005 RMK A01 T00621063  RH  040%=      5-min Rain = 0
KDC1 230854Z 31007KT 06/M06 A3005 RMK A01 T00611064  RH  040%=      5-min Rain = 0
KDC1 230855Z 31007KT 06/M06 A3005 RMK A01 T00611063  RH  040%=      5-min Rain = 0
KDC1 230856Z 31009KT 06/M06 A3005 RMK A01 T00621062  RH  041%=      5-min Rain = 0
KDC1 230857Z 31008KT 06/M06 A3005 RMK A01 T00621062  RH  041%=      5-min Rain = 0
KDC1 230858Z 32007KT 06/M06 A3005 RMK A01 T00621061  RH  041%=      5-min Rain = 0
KDC1 230859Z 32008KT 06/M06 A3005 RMK A01 T00611060  RH  041%=      5-min Rain = 0
KDC1 230900Z 32009KT 06/M06 A3005 RMK A01 T00601058  RH  042%=      5-min Rain = 0
KDC1 230901Z 32009KT 06/M06 A3005 RMK A01 T00601058  RH  042%=      5-min Rain = 0
KDC1 230902Z 31009KT 06/M06 A3005 RMK A01 T00631060  RH  041%=      5-min Rain = 0
KDC1 230903Z 31008KT 07/M06 A3005 RMK A01 T00661060  RH  040%=      5-min Rain = 0
KDC1 230904Z 31008KT 07/M06 A3005 RMK A01 T00671061  RH  039%=      5-min Rain = 0
KDC1 230905Z 31008KT 07/M06 A3005 RMK A01 T00671061  RH  040%=      5-min Rain = 0
KDC1 230906Z 31007KT 06/M06 A3005 RMK A01 T00641061  RH  040%=      5-min Rain = 0
KDC1 230907Z 32009KT 06/M06 A3005 RMK A01 T00611061  RH  041%=      5-min Rain = 0
KDC1 230908Z 32011KT 06/M06 A3005 RMK A01 T00591061  RH  042%=      5-min Rain = 0
KDC1 230909Z 31011KT 06/M06 A3005 RMK A01 T00581061  RH  042%=      5-min Rain = 0
KDC1 230910Z 31010KT 06/M06 A3005 RMK A01 T00641062  RH  040%=      5-min Rain = 0
KDC1 230911Z 31010KT 07/M06 A3005 RMK A01 T00701063  RH  038%=      5-min Rain = 0
KDC1 230912Z 30009KT 07/M06 A3005 RMK A01 T00741064  RH  037%=      5-min Rain = 0
KDC1 230913Z 31009KT 08/M06 A3005 RMK A01 T00761064  RH  036%=      5-min Rain = 0
KDC1 230914Z 31010KT 08/M06 A3005 RMK A01 T00771064  RH  036%=      5-min Rain = 0
KDC1 230915Z 31010KT 08/M06 A3005 RMK A01 T00781064  RH  036%=      5-min Rain = 0
KDC1 230916Z 31010KT 08/M07 A3005 RMK A01 T00791065  RH  035%=      5-min Rain = 0
KDC1 230917Z 31010KT 08/M07 A3005 RMK A01 T00801066  RH  035%=      5-min Rain = 0
KDC1 230918Z 31010KT 08/M07 A3005 RMK A01 T00811067  RH  035%=      5-min Rain = 0
KDC1 230919Z 30008KT 08/M07 A3004 RMK A01 T00811067  RH  034%=      5-min Rain = 0
KDC1 230920Z 29007KT 08/M07 A3004 RMK A01 T00821066  RH  034%=      5-min Rain = 0
KDC1 230921Z 29006KT 08/M06 A3004 RMK A01 T00801064  RH  035%=      5-min Rain = 0
KDC1 230922Z 28005KT 08/M06 A3004 RMK A01 T00781063  RH  036%=      5-min Rain = 0
KDC1 230923Z 25004KT 08/M06 A3004 RMK A01 T00761058  RH  038%=      5-min Rain = 0
KDC1 230924Z 24003KT 07/M05 A3004 RMK A01 T00741054  RH  040%=      5-min Rain = 0
KDC1 230925Z 23003KT 07/M05 A3004 RMK A01 T00721050  RH  041%=      5-min Rain = 0
KDC1 230926Z 23003KT 07/M05 A3004 RMK A01 T00711051  RH  042%=      5-min Rain = 0
KDC1 230927Z 24004KT 07/M06 A3004 RMK A01 T00741057  RH  039%=      5-min Rain = 0
KDC1 230928Z 25005KT 08/M06 A3004 RMK A01 T00831061  RH  035%=      5-min Rain = 0
KDC1 230929Z 26005KT 09/M06 A3004 RMK A01 T00911062  RH  033%=      5-min Rain = 0
KDC1 230930Z 26005KT 10/M06 A3004 RMK A01 T00961062  RH  032%=      5-min Rain = 0
KDC1 230931Z 23004KT 10/M06 A3004 RMK A01 T00971062  RH  032%=      5-min Rain = 0
KDC1 230932Z 20002KT 10/M06 A3004 RMK A01 T00951061  RH  033%=      5-min Rain = 0
KDC1 230933Z 20003KT 09/M06 A3004 RMK A01 T00931061  RH  033%=      5-min Rain = 0
KDC1 230934Z 20003KT 09/M06 A3004 RMK A01 T00911063  RH  033%=      5-min Rain = 0
KDC1 230935Z 21003KT 09/M06 A3004 RMK A01 T00901063  RH  033%=      5-min Rain = 0
KDC1 230936Z 21003KT 09/M06 A3004 RMK A01 T00891063  RH  034%=      5-min Rain = 0
KDC1 230937Z 21004KT 09/M06 A3004 RMK A01 T00881063  RH  034%=      5-min Rain = 0
KDC1 230938Z 21003KT 09/M07 A3004 RMK A01 T00871065  RH  034%=      5-min Rain = 0
KDC1 230939Z 22003KT 09/M07 A3004 RMK A01 T00871067  RH  033%=      5-min Rain = 0
KDC1 230940Z 21003KT 09/M07 A3004 RMK A01 T00871069  RH  033%=      5-min Rain = 0
KDC1 230941Z 20005KT 09/M07 A3004 RMK A01 T00871068  RH  033%=      5-min Rain = 0
KDC1 230942Z 20003KT 09/M07 A3004 RMK A01 T00871071  RH  032%=      5-min Rain = 0
KDC1 230943Z 20003KT 09/M07 A3004 RMK A01 T00881072  RH  032%=      5-min Rain = 0
KDC1 230944Z 21003KT 09/M07 A3004 RMK A01 T00871073  RH  031%=      5-min Rain = 0
KDC1 230945Z 21003KT 09/M07 A3004 RMK A01 T00871074  RH  031%=      5-min Rain = 0
KDC1 230946Z 21003KT 09/M08 A3004 RMK A01 T00881075  RH  031%=      5-min Rain = 0
KDC1 230947Z 19003KT 09/M08 A3004 RMK A01 T00901076  RH  030%=      5-min Rain = 0
KDC1 230948Z 21003KT 09/M08 A3004 RMK A01 T00911077  RH  030%=      5-min Rain = 0
KDC1 230949Z 22003KT 09/M08 A3004 RMK A01 T00921077  RH  029%=      5-min Rain = 0
KDC1 230950Z 23003KT 09/M08 A3004 RMK A01 T00931077  RH  029%=      5-min Rain = 0
KDC1 230951Z 22003KT 09/M08 A3004 RMK A01 T00941075  RH  030%=      5-min Rain = 0
KDC1 230952Z 22003KT 09/M07 A3004 RMK A01 T00931073  RH  030%=      5-min Rain = 0
KDC1 230953Z 22003KT 09/M07 A3004 RMK A01 T00901074  RH  031%=      5-min Rain = 0
KDC1 230954Z 23003KT 09/M08 A3004 RMK A01 T00901075  RH  030%=      5-min Rain = 0
KDC1 230955Z 23003KT 09/M07 A3004 RMK A01 T00891073  RH  031%=      5-min Rain = 0
KDC1 230956Z 23004KT 09/M07 A3004 RMK A01 T00881073  RH  031%=      5-min Rain = 0
KDC1 230957Z 24004KT 09/M07 A3004 RMK A01 T00881072  RH  031%=      5-min Rain = 0
KDC1 230958Z 24003KT 09/M07 A3004 RMK A01 T00861070  RH  033%=      5-min Rain = 0
KDC1 230959Z 24004KT 08/M07 A3004 RMK A01 T00801068  RH  034%=      5-min Rain = 0
KDC1 231000Z 25003KT 08/M07 A3004 RMK A01 T00791069  RH  034%=      5-min Rain = 0
KDC1 231001Z 25003KT 08/M07 A3004 RMK A01 T00791068  RH  035%=      5-min Rain = 0
KDC1 231002Z 24003KT 08/M07 A3004 RMK A01 T00791067  RH  035%=      5-min Rain = 0
KDC1 231003Z 24003KT 08/M07 A3004 RMK A01 T00781066  RH  035%=      5-min Rain = 0
KDC1 231004Z 25004KT 08/M07 A3004 RMK A01 T00761065  RH  036%=      5-min Rain = 0
KDC1 231005Z 25004KT 07/M06 A3004 RMK A01 T00721061  RH  038%=      5-min Rain = 0
KDC1 231006Z 26003KT 07/M06 A3004 RMK A01 T00661060  RH  040%=      5-min Rain = 0
KDC1 231007Z 26002KT 07/M07 A3004 RMK A01 T00661065  RH  039%=      5-min Rain = 0
KDC1 231008Z 26003KT 07/M07 A3004 RMK A01 T00691065  RH  038%=      5-min Rain = 0
KDC1 231009Z 26003KT 07/M06 A3004 RMK A01 T00691063  RH  038%=      5-min Rain = 0
KDC1 231010Z 26003KT 07/M06 A3004 RMK A01 T00671061  RH  040%=      5-min Rain = 0
KDC1 231011Z 24003KT 07/M06 A3004 RMK A01 T00651060  RH  041%=      5-min Rain = 0
KDC1 231012Z 23003KT 07/M06 A3004 RMK A01 T00651064  RH  039%=      5-min Rain = 0
KDC1 231013Z 23004KT 07/M07 A3004 RMK A01 T00711070  RH  036%=      5-min Rain = 0
KDC1 231014Z 24003KT 07/M07 A3004 RMK A01 T00741069  RH  035%=      5-min Rain = 0
KDC1 231015Z 23003KT 07/M06 A3004 RMK A01 T00741062  RH  037%=      5-min Rain = 0
KDC1 231016Z 23005KT 07/M06 A3004 RMK A01 T00721057  RH  039%=      5-min Rain = 0
KDC1 231017Z 23004KT 07/M06 A3004 RMK A01 T00711061  RH  038%=      5-min Rain = 0
KDC1 231018Z 23005KT 07/M06 A3004 RMK A01 T00721064  RH  037%=      5-min Rain = 0
KDC1 231019Z 24005KT 07/M06 A3004 RMK A01 T00741064  RH  037%=      5-min Rain = 0
KDC1 231020Z 24004KT 07/M06 A3004 RMK A01 T00741061  RH  038%=      5-min Rain = 0
KDC1 231021Z 24005KT 07/M06 A3004 RMK A01 T00731060  RH  038%=      5-min Rain = 0
KDC1 231022Z 24006KT 07/M06 A3004 RMK A01 T00711059  RH  039%=      5-min Rain = 0
KDC1 231023Z 23007KT 07/M06 A3004 RMK A01 T00691060  RH  039%=      5-min Rain = 0
KDC1 231024Z 23006KT 07/M06 A3004 RMK A01 T00681061  RH  039%=      5-min Rain = 0
KDC1 231025Z 23006KT 07/M06 A3004 RMK A01 T00681061  RH  039%=      5-min Rain = 0
KDC1 231026Z 23005KT 07/M07 A3004 RMK A01 T00691066  RH  038%=      5-min Rain = 0
KDC1 231027Z 25005KT 07/M07 A3004 RMK A01 T00711067  RH  037%=      5-min Rain = 0
KDC1 231028Z 23006KT 07/M06 A3004 RMK A01 T00721063  RH  038%=      5-min Rain = 0
KDC1 231029Z 23005KT 07/M06 A3004 RMK A01 T00711063  RH  038%=      5-min Rain = 0
KDC1 231030Z 23004KT 07/M07 A3004 RMK A01 T00721066  RH  037%=      5-min Rain = 0
KDC1 231031Z 22005KT 07/M07 A3004 RMK A01 T00721065  RH  037%=      5-min Rain = 0
KDC1 231032Z 21005KT 07/M07 A3004 RMK A01 T00721065  RH  037%=      5-min Rain = 0
KDC1 231033Z 21005KT 07/M06 A3004 RMK A01 T00731064  RH  037%=      5-min Rain = 0
KDC1 231034Z 21005KT 07/M07 A3004 RMK A01 T00721065  RH  037%=      5-min Rain = 0
KDC1 231035Z 22006KT 07/M06 A3005 RMK A01 T00721063  RH  037%=      5-min Rain = 0
KDC1 231036Z 23006KT 07/M06 A3005 RMK A01 T00721064  RH  037%=      5-min Rain = 0
KDC1 231037Z 22006KT 07/M06 A3005 RMK A01 T00711063  RH  038%=      5-min Rain = 0
KDC1 231038Z 21005KT 07/M06 A3005 RMK A01 T00711064  RH  038%=      5-min Rain = 0
KDC1 231039Z 22005KT 07/M06 A3005 RMK A01 T00721064  RH  037%=      5-min Rain = 0
KDC1 231040Z 22004KT 07/M06 A3005 RMK A01 T00711064  RH  038%=      5-min Rain = 0
KDC1 231041Z 22005KT 07/M07 A3005 RMK A01 T00711065  RH  037%=      5-min Rain = 0
KDC1 231042Z 23006KT 07/M07 A3005 RMK A01 T00721066  RH  037%=      5-min Rain = 0
KDC1 231043Z 23005KT 07/M07 A3005 RMK A01 T00731065  RH  037%=      5-min Rain = 0
KDC1 231044Z 22004KT 07/M06 A3005 RMK A01 T00711062  RH  038%=      5-min Rain = 0
KDC1 231045Z 21004KT 07/M06 A3005 RMK A01 T00691062  RH  039%=      5-min Rain = 0
KDC1 231046Z 21004KT 07/M06 A3005 RMK A01 T00681064  RH  038%=      5-min Rain = 0
KDC1 231047Z 22003KT 07/M07 A3005 RMK A01 T00691065  RH  038%=      5-min Rain = 0
KDC1 231048Z 22004KT 07/M06 A3005 RMK A01 T00691064  RH  038%=      5-min Rain = 0
KDC1 231049Z 21003KT 07/M06 A3005 RMK A01 T00691063  RH  038%=      5-min Rain = 0
KDC1 231050Z 21002KT 07/M06 A3005 RMK A01 T00691063  RH  038%=      5-min Rain = 0
KDC1 231051Z 18001KT 07/M06 A3005 RMK A01 T00691064  RH  038%=      5-min Rain = 0
KDC1 231052Z 18001KT 07/M06 A3005 RMK A01 T00691063  RH  038%=      5-min Rain = 0
KDC1 231053Z 15001KT 07/M06 A3005 RMK A01 T00681060  RH  039%=      5-min Rain = 0
KDC1 231054Z 07002KT 07/M06 A3006 RMK A01 T00651059  RH  040%=      5-min Rain = 0
KDC1 231055Z 08002KT 06/M06 A3006 RMK A01 T00601058  RH  042%=      5-min Rain = 0
KDC1 231056Z 13001KT 06/M06 A3005 RMK A01 T00551059  RH  043%=      5-min Rain = 0
KDC1 231057Z 10001KT 05/M06 A3005 RMK A01 T00531058  RH  044%=      5-min Rain = 0
KDC1 231058Z 07003KT 05/M06 A3006 RMK A01 T00531058  RH  045%=      5-min Rain = 0
KDC1 231059Z 09003KT 05/M06 A3005 RMK A01 T00511059  RH  045%=      5-min Rain = 0
KDC1 231100Z 13002KT 05/M06 A3005 RMK A01 T00501058  RH  046%=      5-min Rain = 0
KDC1 231101Z 13000KT 05/M06 A3006 RMK A01 T00491056  RH  046%=      5-min Rain = 0
KDC1 231102Z 18001KT 05/M06 A3006 RMK A01 T00481057  RH  047%=      5-min Rain = 0
KDC1 231103Z 18000KT 05/M06 A3006 RMK A01 T00471057  RH  047%=      5-min Rain = 0
KDC1 231104Z 00000KT 05/M06 A3006 RMK A01 T00471056  RH  047%=      5-min Rain = 0
KDC1 231105Z 00000KT 05/M06 A3006 RMK A01 T00471057  RH  047%=      5-min Rain = 0
KDC1 231106Z 24000KT 05/M06 A3006 RMK A01 T00471058  RH  046%=      5-min Rain = 0
KDC1 231107Z 26002KT 05/M06 A3006 RMK A01 T00481057  RH  046%=      5-min Rain = 0
KDC1 231108Z 26002KT 05/M06 A3006 RMK A01 T00481058  RH  046%=      5-min Rain = 0
KDC1 231109Z 26002KT 05/M06 A3006 RMK A01 T00481060  RH  046%=      5-min Rain = 0
KDC1 231110Z 30002KT 05/M06 A3006 RMK A01 T00501060  RH  045%=      5-min Rain = 0
KDC1 231111Z 30002KT 05/M06 A3006 RMK A01 T00511061  RH  044%=      5-min Rain = 0
KDC1 231112Z 28002KT 05/M06 A3006 RMK A01 T00531062  RH  043%=      5-min Rain = 0
KDC1 231113Z 29002KT 06/M06 A3006 RMK A01 T00551062  RH  043%=      5-min Rain = 0
KDC1 231114Z 28003KT 06/M06 A3006 RMK A01 T00551062  RH  043%=      5-min Rain = 0
KDC1 231115Z 26003KT 05/M06 A3006 RMK A01 T00491062  RH  045%=      5-min Rain = 0
KDC1 231116Z 26003KT 05/M06 A3006 RMK A01 T00461062  RH  046%=      5-min Rain = 0
KDC1 231117Z 26002KT 05/M06 A3006 RMK A01 T00451061  RH  046%=      5-min Rain = 0
KDC1 231118Z 25002KT 05/M06 A3006 RMK A01 T00481060  RH  046%=      5-min Rain = 0
KDC1 231119Z 24002KT 05/M06 A3006 RMK A01 T00501060  RH  045%=      5-min Rain = 0
KDC1 231120Z 25001KT 05/M06 A3006 RMK A01 T00511059  RH  045%=      5-min Rain = 0
KDC1 231121Z 26002KT 05/M06 A3006 RMK A01 T00491060  RH  045%=      5-min Rain = 0
KDC1 231122Z 25002KT 05/M06 A3007 RMK A01 T00451060  RH  046%=      5-min Rain = 0
KDC1 231123Z 26002KT 05/M06 A3007 RMK A01 T00451060  RH  047%=      5-min Rain = 0
KDC1 231124Z 26001KT 05/M06 A3007 RMK A01 T00461058  RH  047%=      5-min Rain = 0
KDC1 231125Z 26000KT 05/M06 A3007 RMK A01 T00461058  RH  047%=      5-min Rain = 0
KDC1 231126Z 34000KT 04/M06 A3007 RMK A01 T00441060  RH  047%=      5-min Rain = 0
KDC1 231127Z 36001KT 04/M06 A3007 RMK A01 T00421061  RH  047%=      5-min Rain = 0
KDC1 231128Z 02002KT 04/M06 A3007 RMK A01 T00401061  RH  048%=      5-min Rain = 0
KDC1 231129Z 04002KT 04/M06 A3007 RMK A01 T00381060  RH  049%=      5-min Rain = 0
KDC1 231130Z 04003KT 04/M06 A3007 RMK A01 T00381056  RH  050%=      5-min Rain = 0
KDC1 231131Z 07002KT 04/M06 A3007 RMK A01 T00381055  RH  051%=      5-min Rain = 0
KDC1 231132Z 10007KT 04/M05 A3007 RMK A01 T00371052  RH  052%=      5-min Rain = 0
KDC1 231133Z 08005KT 03/M05 A3007 RMK A01 T00301049  RH  056%=      5-min Rain = 0
KDC1 231134Z 07004KT 03/M05 A3007 RMK A01 T00261051  RH  057%=      5-min Rain = 0
KDC1 231135Z 07003KT 03/M05 A3007 RMK A01 T00271051  RH  056%=      5-min Rain = 0
KDC1 231136Z 08003KT 03/M05 A3007 RMK A01 T00271052  RH  056%=      5-min Rain = 0
KDC1 231137Z 08003KT 03/M05 A3007 RMK A01 T00271052  RH  056%=      5-min Rain = 0
KDC1 231138Z 07002KT 03/M05 A3007 RMK A01 T00271051  RH  056%=      5-min Rain = 0
KDC1 231139Z 06002KT 03/M05 A3007 RMK A01 T00271051  RH  056%=      5-min Rain = 0
KDC1 231140Z 07002KT 03/M05 A3007 RMK A01 T00271051  RH  056%=      5-min Rain = 0
KDC1 231141Z 10001KT 03/M05 A3007 RMK A01 T00271051  RH  056%=      5-min Rain = 0
KDC1 231142Z 10001KT 03/M05 A3007 RMK A01 T00271052  RH  056%=      5-min Rain = 0
KDC1 231143Z 10001KT 03/M05 A3007 RMK A01 T00271050  RH  057%=      5-min Rain = 0
KDC1 231144Z 08000KT 03/M05 A3008 RMK A01 T00271049  RH  057%=      5-min Rain = 0
KDC1 231145Z 06001KT 03/M05 A3008 RMK A01 T00271049  RH  057%=      5-min Rain = 0
KDC1 231146Z 06002KT 03/M05 A3008 RMK A01 T00281050  RH  056%=      5-min Rain = 0
KDC1 231147Z 07003KT 03/M05 A3008 RMK A01 T00291051  RH  056%=      5-min Rain = 0
KDC1 231148Z 08003KT 03/M05 A3008 RMK A01 T00291052  RH  056%=      5-min Rain = 0
KDC1 231149Z 07002KT 03/M05 A3008 RMK A01 T00291050  RH  056%=      5-min Rain = 0
KDC1 231150Z 06002KT 03/M05 A3008 RMK A01 T00301048  RH  057%=      5-min Rain = 0
KDC1 231151Z 05002KT 03/M05 A3008 RMK A01 T00301048  RH  057%=      5-min Rain = 0
KDC1 231152Z 05001KT 03/M05 A3008 RMK A01 T00301048  RH  056%=      5-min Rain = 0
KDC1 231153Z 06001KT 03/M05 A3008 RMK A01 T00301048  RH  056%=      5-min Rain = 0
KDC1 231154Z 06000KT 03/M05 A3008 RMK A01 T00301048  RH  056%=      5-min Rain = 0
KDC1 231155Z 00000KT 03/M05 A3008 RMK A01 T00301049  RH  056%=      5-min Rain = 0
KDC1 231156Z 00000KT 03/M05 A3008 RMK A01 T00301049  RH  056%=      5-min Rain = 0
KDC1 231157Z 13000KT 03/M05 A3008 RMK A01 T00291050  RH  056%=      5-min Rain = 0
KDC1 231158Z 14001KT 03/M05 A3008 RMK A01 T00281050  RH  056%=      5-min Rain = 0
KDC1 231159Z 15000KT 03/M05 A3008 RMK A01 T00281049  RH  057%=      5-min Rain = 0
KDC1 231200Z 00000KT 03/M05 A3008 RMK A01 T00281049  RH  057%=      5-min Rain = 0
KDC1 231201Z 00000KT 03/M05 A3008 RMK A01 T00281049  RH  057%=      5-min Rain = 0
KDC1 231202Z 00000KT 03/M05 A3008 RMK A01 T00281047  RH  057%=      5-min Rain = 0
KDC1 231203Z 00000KT 03/M05 A3008 RMK A01 T00291047  RH  057%=      5-min Rain = 0
KDC1 231204Z 35001KT 03/M05 A3008 RMK A01 T00301047  RH  057%=      5-min Rain = 0
KDC1 231205Z 35001KT 03/M05 A3008 RMK A01 T00311048  RH  056%=      5-min Rain = 0
KDC1 231206Z 35001KT 03/M05 A3008 RMK A01 T00311047  RH  056%=      5-min Rain = 0
KDC1 231207Z 35001KT 03/M05 A3008 RMK A01 T00311050  RH  055%=      5-min Rain = 0
KDC1 231208Z 35001KT 03/M05 A3008 RMK A01 T00281054  RH  055%=      5-min Rain = 0
KDC1 231209Z 00001KT 02/M06 A3008 RMK A01 T00241055  RH  056%=      5-min Rain = 0
KDC1 231210Z 02002KT 02/M06 A3008 RMK A01 T00221055  RH  057%=      5-min Rain = 0
KDC1 231211Z 02002KT 02/M05 A3008 RMK A01 T00211054  RH  058%=      5-min Rain = 0
KDC1 231212Z 01000KT 02/M05 A3008 RMK A01 T00201054  RH  058%=      5-min Rain = 0
KDC1 231213Z 01000KT 02/M05 A3008 RMK A01 T00191054  RH  059%=      5-min Rain = 0
KDC1 231214Z 35001KT 02/M05 A3008 RMK A01 T00201051  RH  059%=      5-min Rain = 0
KDC1 231215Z 34002KT 02/M05 A3008 RMK A01 T00241048  RH  059%=      5-min Rain = 0
KDC1 231216Z 34001KT 03/M05 A3008 RMK A01 T00301046  RH  057%=      5-min Rain = 0
KDC1 231217Z 34000KT 04/M05 A3008 RMK A01 T00361046  RH  055%=      5-min Rain = 0
KDC1 231218Z 00000KT 04/M05 A3008 RMK A01 T00401048  RH  053%=      5-min Rain = 0
KDC1 231219Z 00000KT 04/M05 A3008 RMK A01 T00411049  RH  052%=      5-min Rain = 0
KDC1 231220Z 00000KT 04/M05 A3008 RMK A01 T00441048  RH  051%=      5-min Rain = 0
KDC1 231221Z 35000KT 05/M04 A3008 RMK A01 T00451044  RH  052%=      5-min Rain = 0
KDC1 231222Z 02000KT 04/M05 A3008 RMK A01 T00421047  RH  052%=      5-min Rain = 0
KDC1 231223Z 03002KT 04/M05 A3008 RMK A01 T00381051  RH  052%=      5-min Rain = 0
KDC1 231224Z 36002KT 04/M05 A3008 RMK A01 T00351051  RH  053%=      5-min Rain = 0
KDC1 231225Z 00002KT 03/M05 A3008 RMK A01 T00321052  RH  054%=      5-min Rain = 0
KDC1 231226Z 35002KT 03/M05 A3008 RMK A01 T00301051  RH  055%=      5-min Rain = 0
KDC1 231227Z 35002KT 03/M05 A3008 RMK A01 T00281051  RH  056%=      5-min Rain = 0
KDC1 231228Z 35001KT 03/M05 A3008 RMK A01 T00271049  RH  057%=      5-min Rain = 0
KDC1 231229Z 01001KT 03/M05 A3008 RMK A01 T00271050  RH  057%=      5-min Rain = 0
KDC1 231230Z 36002KT 03/M05 A3008 RMK A01 T00261052  RH  056%=      5-min Rain = 0
KDC1 231231Z 31002KT 02/M05 A3009 RMK A01 T00241054  RH  056%=      5-min Rain = 0
KDC1 231232Z 32002KT 02/M06 A3009 RMK A01 T00221056  RH  057%=      5-min Rain = 0
KDC1 231233Z 35001KT 02/M06 A3009 RMK A01 T00191057  RH  057%=      5-min Rain = 0
KDC1 231234Z 01000KT 02/M06 A3009 RMK A01 T00181056  RH  058%=      5-min Rain = 0
KDC1 231235Z 36001KT 02/M06 A3009 RMK A01 T00171056  RH  058%=      5-min Rain = 0
KDC1 231236Z 34002KT 02/M06 A3009 RMK A01 T00181056  RH  058%=      5-min Rain = 0
KDC1 231237Z 33002KT 02/M06 A3009 RMK A01 T00201056  RH  057%=      5-min Rain = 0
KDC1 231238Z 32002KT 02/M06 A3009 RMK A01 T00201056  RH  057%=      5-min Rain = 0
KDC1 231239Z 33003KT 02/M06 A3009 RMK A01 T00201057  RH  057%=      5-min Rain = 0
KDC1 231240Z 31003KT 02/M06 A3009 RMK A01 T00211058  RH  056%=      5-min Rain = 0
KDC1 231241Z 30003KT 02/M06 A3009 RMK A01 T00211058  RH  056%=      5-min Rain = 0
KDC1 231242Z 30004KT 02/M06 A3009 RMK A01 T00211057  RH  056%=      5-min Rain = 0
KDC1 231243Z 31004KT 02/M06 A3009 RMK A01 T00201056  RH  057%=      5-min Rain = 0
KDC1 231244Z 31004KT 02/M06 A3009 RMK A01 T00201057  RH  057%=      5-min Rain = 0
KDC1 231245Z 31004KT 02/M06 A3009 RMK A01 T00191056  RH  057%=      5-min Rain = 0
KDC1 231246Z 31004KT 02/M05 A3009 RMK A01 T00191054  RH  059%=      5-min Rain = 0
KDC1 231247Z 31004KT 02/M05 A3009 RMK A01 T00181051  RH  060%=      5-min Rain = 0
KDC1 231248Z 30006KT 02/M05 A3009 RMK A01 T00171048  RH  062%=      5-min Rain = 0
KDC1 231249Z 31004KT 02/M05 A3009 RMK A01 T00171046  RH  063%=      5-min Rain = 0
KDC1 231250Z 31004KT 02/M05 A3009 RMK A01 T00161045  RH  064%=      5-min Rain = 0
KDC1 231251Z 31004KT 02/M05 A301 RMK A01 T00161046  RH  063%=      5-min Rain = 0
KDC1 231252Z 32003KT 02/M05 A301 RMK A01 T00171047  RH  063%=      5-min Rain = 0
KDC1 231253Z 31003KT 02/M05 A301 RMK A01 T00171047  RH  062%=      5-min Rain = 0
KDC1 231254Z 32001KT 02/M05 A301 RMK A01 T00171047  RH  062%=      5-min Rain = 0
KDC1 231255Z 00000KT 02/M05 A301 RMK A01 T00181047  RH  062%=      5-min Rain = 0
KDC1 231256Z 32002KT 02/M05 A301 RMK A01 T00181047  RH  062%=      5-min Rain = 0
KDC1 231257Z 30003KT 02/M05 A301 RMK A01 T00181049  RH  061%=      5-min Rain = 0
KDC1 231258Z 31004KT 02/M05 A301 RMK A01 T00191050  RH  060%=      5-min Rain = 0
KDC1 231259Z 31003KT 02/M05 A301 RMK A01 T00201049  RH  060%=      5-min Rain = 0
KDC1 231300Z 32003KT 02/M05 A301 RMK A01 T00201047  RH  061%=      5-min Rain = 0
KDC1 231301Z 32003KT 02/M05 A301 RMK A01 T00211046  RH  061%=      5-min Rain = 0
KDC1 231302Z 32003KT 02/M05 A301 RMK A01 T00211046  RH  061%=      5-min Rain = 0
KDC1 231303Z 31004KT 02/M05 A301 RMK A01 T00211047  RH  061%=      5-min Rain = 0
KDC1 231304Z 31004KT 02/M05 A301 RMK A01 T00201046  RH  062%=      5-min Rain = 0
KDC1 231305Z 31003KT 02/M05 A301 RMK A01 T00191047  RH  062%=      5-min Rain = 0
KDC1 231306Z 31003KT 02/M05 A301 RMK A01 T00191048  RH  061%=      5-min Rain = 0
KDC1 231307Z 32004KT 02/M05 A301 RMK A01 T00171048  RH  062%=      5-min Rain = 0
KDC1 231308Z 32003KT 02/M05 A301 RMK A01 T00161050  RH  062%=      5-min Rain = 0
KDC1 231309Z 32003KT 02/M05 A301 RMK A01 T00151051  RH  061%=      5-min Rain = 0
KDC1 231310Z 31002KT 02/M05 A301 RMK A01 T00151051  RH  062%=      5-min Rain = 0
KDC1 231311Z 30002KT 01/M05 A301 RMK A01 T00141049  RH  063%=      5-min Rain = 0
KDC1 231312Z 31002KT 01/M05 A301 RMK A01 T00141047  RH  063%=      5-min Rain = 0
KDC1 231313Z 31002KT 02/M05 A3011 RMK A01 T00151048  RH  063%=      5-min Rain = 0
KDC1 231314Z 32002KT 02/M05 A3011 RMK A01 T00161049  RH  062%=      5-min Rain = 0
KDC1 231315Z 32003KT 02/M05 A3011 RMK A01 T00161050  RH  061%=      5-min Rain = 0
KDC1 231316Z 32003KT 02/M05 A3011 RMK A01 T00171050  RH  061%=      5-min Rain = 0
KDC1 231317Z 33003KT 02/M05 A3011 RMK A01 T00171048  RH  062%=      5-min Rain = 0
KDC1 231318Z 33003KT 02/M05 A3011 RMK A01 T00181048  RH  062%=      5-min Rain = 0
KDC1 231319Z 33003KT 02/M05 A3011 RMK A01 T00181049  RH  061%=      5-min Rain = 0
KDC1 231320Z 32003KT 02/M05 A3011 RMK A01 T00191050  RH  060%=      5-min Rain = 0
KDC1 231321Z 32003KT 02/M05 A3011 RMK A01 T00191050  RH  060%=      5-min Rain = 0
KDC1 231322Z 32003KT 02/M05 A3011 RMK A01 T00191050  RH  060%=      5-min Rain = 0
KDC1 231323Z 32003KT 02/M05 A3011 RMK A01 T00191050  RH  060%=      5-min Rain = 0
KDC1 231324Z 32003KT 02/M05 A3011 RMK A01 T00191049  RH  061%=      5-min Rain = 0
KDC1 231325Z 31003KT 02/M05 A3011 RMK A01 T00191049  RH  061%=      5-min Rain = 0
KDC1 231326Z 31003KT 02/M05 A3011 RMK A01 T00191049  RH  061%=      5-min Rain = 0
KDC1 231327Z 31003KT 02/M05 A3011 RMK A01 T00201050  RH  060%=      5-min Rain = 0
KDC1 231328Z 31003KT 02/M05 A3011 RMK A01 T00211050  RH  059%=      5-min Rain = 0
KDC1 231329Z 31002KT 02/M05 A3011 RMK A01 T00221049  RH  059%=      5-min Rain = 0
KDC1 231330Z 31002KT 02/M05 A3011 RMK A01 T00231049  RH  059%=      5-min Rain = 0
KDC1 231331Z 32002KT 02/M05 A3011 RMK A01 T00231048  RH  059%=      5-min Rain = 0
KDC1 231332Z 33002KT 02/M05 A3011 RMK A01 T00231049  RH  059%=      5-min Rain = 0
KDC1 231333Z 34002KT 02/M05 A3011 RMK A01 T00241049  RH  058%=      5-min Rain = 0
KDC1 231334Z 34001KT 03/M05 A3011 RMK A01 T00261050  RH  057%=      5-min Rain = 0
KDC1 231335Z 34001KT 03/M05 A3011 RMK A01 T00281049  RH  057%=      5-min Rain = 0
KDC1 231336Z 33002KT 03/M05 A3011 RMK A01 T00291050  RH  056%=      5-min Rain = 0
KDC1 231337Z 33002KT 03/M05 A3011 RMK A01 T00311050  RH  055%=      5-min Rain = 0
KDC1 231338Z 33002KT 03/M05 A3011 RMK A01 T00321049  RH  055%=      5-min Rain = 0
KDC1 231339Z 32001KT 03/M05 A3012 RMK A01 T00331047  RH  056%=      5-min Rain = 0
KDC1 231340Z 31002KT 03/M05 A3012 RMK A01 T00331045  RH  057%=      5-min Rain = 0
KDC1 231341Z 31001KT 03/M04 A3011 RMK A01 T00331043  RH  057%=      5-min Rain = 0
KDC1 231342Z 31001KT 03/M04 A3011 RMK A01 T00341042  RH  058%=      5-min Rain = 0
KDC1 231343Z 32001KT 04/M04 A3012 RMK A01 T00351040  RH  058%=      5-min Rain = 0
KDC1 231344Z 00000KT 04/M04 A3012 RMK A01 T00361039  RH  058%=      5-min Rain = 0
KDC1 231345Z 00000KT 04/M04 A3012 RMK A01 T00381037  RH  058%=      5-min Rain = 0
KDC1 231346Z 00000KT 04/M04 A3012 RMK A01 T00411036  RH  057%=      5-min Rain = 0
KDC1 231347Z 00000KT 04/M04 A3012 RMK A01 T00431038  RH  056%=      5-min Rain = 0
KDC1 231348Z 00000KT 05/M04 A3012 RMK A01 T00461037  RH  055%=      5-min Rain = 0
KDC1 231349Z 00000KT 05/M04 A3012 RMK A01 T00471038  RH  054%=      5-min Rain = 0
KDC1 231350Z 34001KT 05/M04 A3012 RMK A01 T00481041  RH  052%=      5-min Rain = 0
KDC1 231351Z 34001KT 05/M04 A3012 RMK A01 T00481042  RH  052%=      5-min Rain = 0
KDC1 231352Z 34002KT 05/M04 A3012 RMK A01 T00481041  RH  053%=      5-min Rain = 0
KDC1 231353Z 33002KT 05/M04 A3012 RMK A01 T00471042  RH  052%=      5-min Rain = 0
KDC1 231354Z 34002KT 05/M04 A3012 RMK A01 T00471041  RH  053%=      5-min Rain = 0
KDC1 231355Z 36003KT 05/M04 A3012 RMK A01 T00461043  RH  052%=      5-min Rain = 0
KDC1 231356Z 36003KT 05/M05 A3012 RMK A01 T00481045  RH  051%=      5-min Rain = 0
KDC1 231357Z 35003KT 05/M05 A3012 RMK A01 T00491046  RH  050%=      5-min Rain = 0
KDC1 231358Z 34002KT 05/M05 A3012 RMK A01 T00501047  RH  049%=      5-min Rain = 0
KDC1 231359Z 33002KT 05/M05 A3012 RMK A01 T00521048  RH  048%=      5-min Rain = 0
KDC1 231400Z 32001KT 05/M05 A3012 RMK A01 T00531048  RH  048%=      5-min Rain = 0
KDC1 231401Z 33001KT 05/M05 A3012 RMK A01 T00541047  RH  048%=      5-min Rain = 0
KDC1 231402Z 06000KT 06/M05 A3012 RMK A01 T00561048  RH  047%=      5-min Rain = 0
KDC1 231403Z 06001KT 06/M05 A3012 RMK A01 T00581046  RH  047%=      5-min Rain = 0
KDC1 231404Z 06000KT 06/M05 A3012 RMK A01 T00621046  RH  046%=      5-min Rain = 0
KDC1 231405Z 00000KT 06/M05 A3012 RMK A01 T00641047  RH  045%=      5-min Rain = 0
KDC1 231406Z 00000KT 06/M05 A3012 RMK A01 T00641047  RH  045%=      5-min Rain = 0
KDC1 231407Z 36001KT 07/M05 A3012 RMK A01 T00651049  RH  044%=      5-min Rain = 0
KDC1 231408Z 34001KT 07/M05 A3013 RMK A01 T00651049  RH  044%=      5-min Rain = 0
KDC1 231409Z 00001KT 07/M05 A3013 RMK A01 T00651049  RH  044%=      5-min Rain = 0
KDC1 231410Z 01001KT 06/M05 A3013 RMK A01 T00641047  RH  045%=      5-min Rain = 0
KDC1 231411Z 00001KT 06/M05 A3013 RMK A01 T00641048  RH  044%=      5-min Rain = 0
KDC1 231412Z 00002KT 07/M05 A3013 RMK A01 T00651048  RH  044%=      5-min Rain = 0
KDC1 231413Z 00001KT 07/M05 A3013 RMK A01 T00651048  RH  044%=      5-min Rain = 0
KDC1 231414Z 02001KT 07/M05 A3013 RMK A01 T00651048  RH  044%=      5-min Rain = 0
KDC1 231415Z 02002KT 07/M05 A3013 RMK A01 T00671048  RH  044%=      5-min Rain = 0
KDC1 231416Z 03002KT 07/M05 A3013 RMK A01 T00681051  RH  042%=      5-min Rain = 0
KDC1 231417Z 03002KT 07/M05 A3013 RMK A01 T00691053  RH  042%=      5-min Rain = 0
KDC1 231418Z 03001KT 07/M05 A3013 RMK A01 T00701052  RH  041%=      5-min Rain = 0
KDC1 231419Z 03001KT 07/M05 A3013 RMK A01 T00721051  RH  041%=      5-min Rain = 0
KDC1 231420Z 04001KT 07/M05 A3013 RMK A01 T00721051  RH  041%=      5-min Rain = 0
KDC1 231421Z 06002KT 07/M05 A3013 RMK A01 T00731051  RH  041%=      5-min Rain = 0
KDC1 231422Z 07002KT 07/M05 A3013 RMK A01 T00741052  RH  040%=      5-min Rain = 0
KDC1 231423Z 08001KT 07/M05 A3013 RMK A01 T00741052  RH  040%=      5-min Rain = 0
KDC1 231424Z 11001KT 08/M05 A3013 RMK A01 T00751052  RH  040%=      5-min Rain = 0
KDC1 231425Z 10000KT 08/M06 A3014 RMK A01 T00751055  RH  039%=      5-min Rain = 0
KDC1 231426Z 10001KT 08/M06 A3014 RMK A01 T00751057  RH  038%=      5-min Rain = 0
KDC1 231427Z 10001KT 08/M06 A3014 RMK A01 T00751056  RH  039%=      5-min Rain = 0
KDC1 231428Z 09001KT 08/M06 A3014 RMK A01 T00751057  RH  039%=      5-min Rain = 0
KDC1 231429Z 10000KT 08/M06 A3014 RMK A01 T00751057  RH  038%=      5-min Rain = 0
KDC1 231430Z 10001KT 08/M06 A3014 RMK A01 T00761057  RH  038%=      5-min Rain = 0
KDC1 231431Z 10001KT 08/M06 A3014 RMK A01 T00771056  RH  038%=      5-min Rain = 0
KDC1 231432Z 00000KT 08/M06 A3014 RMK A01 T00791055  RH  038%=      5-min Rain = 0
KDC1 231433Z 03000KT 08/M05 A3013 RMK A01 T00801053  RH  038%=      5-min Rain = 0
KDC1 231434Z 03001KT 08/M05 A3013 RMK A01 T00821051  RH  039%=      5-min Rain = 0
KDC1 231435Z 04002KT 08/M05 A3013 RMK A01 T00821051  RH  038%=      5-min Rain = 0
KDC1 231436Z 02002KT 08/M05 A3014 RMK A01 T00831054  RH  038%=      5-min Rain = 0
KDC1 231437Z 02002KT 08/M05 A3014 RMK A01 T00831053  RH  038%=      5-min Rain = 0
KDC1 231438Z 02002KT 08/M05 A3014 RMK A01 T00831052  RH  038%=      5-min Rain = 0
KDC1 231439Z 01002KT 08/M05 A3014 RMK A01 T00831054  RH  037%=      5-min Rain = 0
KDC1 231440Z 01001KT 08/M05 A3014 RMK A01 T00831053  RH  038%=      5-min Rain = 0
KDC1 231441Z 01000KT 08/M05 A3014 RMK A01 T00841053  RH  038%=      5-min Rain = 0
KDC1 231442Z 02001KT 09/M05 A3014 RMK A01 T00851052  RH  037%=      5-min Rain = 0
KDC1 231443Z 03001KT 09/M05 A3014 RMK A01 T00861051  RH  037%=      5-min Rain = 0
KDC1 231444Z 05001KT 09/M05 A3014 RMK A01 T00881052  RH  037%=      5-min Rain = 0
KDC1 231445Z 06002KT 09/M05 A3014 RMK A01 T00901052  RH  036%=      5-min Rain = 0
KDC1 231446Z 04002KT 09/M05 A3014 RMK A01 T00921049  RH  036%=      5-min Rain = 0
KDC1 231447Z 06002KT 09/M05 A3014 RMK A01 T00931051  RH  036%=      5-min Rain = 0
KDC1 231448Z 07002KT 10/M05 A3014 RMK A01 T00951050  RH  036%=      5-min Rain = 0
KDC1 231449Z 08002KT 10/M05 A3014 RMK A01 T00951052  RH  035%=      5-min Rain = 0
KDC1 231450Z 09001KT 10/M05 A3014 RMK A01 T00951053  RH  035%=      5-min Rain = 0
KDC1 231451Z 08002KT 09/M06 A3014 RMK A01 T00941055  RH  034%=      5-min Rain = 0
KDC1 231452Z 09001KT 09/M06 A3014 RMK A01 T00941055  RH  034%=      5-min Rain = 0
KDC1 231453Z 09002KT 09/M06 A3014 RMK A01 T00941057  RH  034%=      5-min Rain = 0
KDC1 231454Z 10002KT 09/M06 A3014 RMK A01 T00941057  RH  034%=      5-min Rain = 0
KDC1 231455Z 09002KT 09/M06 A3014 RMK A01 T00941057  RH  034%=      5-min Rain = 0
KDC1 231456Z 09001KT 09/M06 A3014 RMK A01 T00941056  RH  034%=      5-min Rain = 0
KDC1 231457Z 00001KT 10/M05 A3014 RMK A01 T00961053  RH  035%=      5-min Rain = 0
KDC1 231458Z 33002KT 10/M06 A3014 RMK A01 T00971056  RH  034%=      5-min Rain = 0
KDC1 231459Z 33002KT 10/M06 A3014 RMK A01 T00961056  RH  034%=      5-min Rain = 0
KDC1 231500Z 31003KT 10/M05 A3014 RMK A01 T00961054  RH  034%=      5-min Rain = 0
KDC1 231501Z 31002KT 10/M05 A3014 RMK A01 T00951054  RH  035%=      5-min Rain = 0
KDC1 231502Z 32002KT 10/M05 A3014 RMK A01 T00951053  RH  035%=      5-min Rain = 0
KDC1 231503Z 33001KT 10/M06 A3014 RMK A01 T00961055  RH  034%=      5-min Rain = 0
KDC1 231504Z 35001KT 10/M06 A3014 RMK A01 T00971055  RH  034%=      5-min Rain = 0
KDC1 231505Z 01001KT 10/M05 A3014 RMK A01 T00981054  RH  034%=      5-min Rain = 0
KDC1 231506Z 05001KT 10/M06 A3014 RMK A01 T00991055  RH  033%=      5-min Rain = 0
KDC1 231507Z 07001KT 10/M05 A3014 RMK A01 T01001054  RH  033%=      5-min Rain = 0
KDC1 231508Z 05001KT 10/M05 A3015 RMK A01 T01021054  RH  033%=      5-min Rain = 0
KDC1 231509Z 04000KT 10/M06 A3015 RMK A01 T01031055  RH  032%=      5-min Rain = 0
KDC1 231510Z 00000KT 11/M06 A3015 RMK A01 T01051055  RH  032%=      5-min Rain = 0
KDC1 231511Z 20000KT 11/M05 A3015 RMK A01 T01081054  RH  032%=      5-min Rain = 0
KDC1 231512Z 18000KT 11/M05 A3015 RMK A01 T01111052  RH  031%=      5-min Rain = 0
KDC1 231513Z 10000KT 11/M05 A3015 RMK A01 T01131051  RH  031%=      5-min Rain = 0
KDC1 231514Z 09000KT 11/M05 A3015 RMK A01 T01141052  RH  031%=      5-min Rain = 0
KDC1 231515Z 01000KT 11/M05 A3015 RMK A01 T01141053  RH  031%=      5-min Rain = 0
KDC1 231516Z 32000KT 11/M05 A3015 RMK A01 T01141053  RH  031%=      5-min Rain = 0
KDC1 231517Z 31000KT 11/M05 A3015 RMK A01 T01141053  RH  031%=      5-min Rain = 0
KDC1 231518Z 31002KT 11/M05 A3015 RMK A01 T01131053  RH  031%=      5-min Rain = 0
KDC1 231519Z 31001KT 11/M05 A3015 RMK A01 T01111054  RH  031%=      5-min Rain = 0
KDC1 231520Z 33000KT 11/M05 A3015 RMK A01 T01101050  RH  032%=      5-min Rain = 0
KDC1 231521Z 00000KT 11/M05 A3015 RMK A01 T01111047  RH  033%=      5-min Rain = 0
KDC1 231522Z 00000KT 11/M05 A3014 RMK A01 T01131048  RH  032%=      5-min Rain = 0
KDC1 231523Z 08001KT 12/M05 A3015 RMK A01 T01161047  RH  032%=      5-min Rain = 0
KDC1 231524Z 08001KT 12/M05 A3015 RMK A01 T01171049  RH  031%=      5-min Rain = 0
KDC1 231525Z 07001KT 12/M05 A3015 RMK A01 T01171050  RH  031%=      5-min Rain = 0
KDC1 231526Z 07001KT 12/M05 A3014 RMK A01 T01171047  RH  031%=      5-min Rain = 0
KDC1 231527Z 06001KT 12/M05 A3014 RMK A01 T01181050  RH  031%=      5-min Rain = 0
KDC1 231528Z 05000KT 12/M05 A3015 RMK A01 T01181050  RH  030%=      5-min Rain = 0
KDC1 231529Z 00000KT 12/M05 A3015 RMK A01 T01191050  RH  030%=      5-min Rain = 0
KDC1 231530Z 12000KT 12/M05 A3015 RMK A01 T01201049  RH  030%=      5-min Rain = 0
KDC1 231531Z 00000KT 12/M05 A3015 RMK A01 T01221047  RH  030%=      5-min Rain = 0
KDC1 231532Z 07001KT 12/M05 A3015 RMK A01 T01241048  RH  030%=      5-min Rain = 0
KDC1 231533Z 07002KT 12/M05 A3015 RMK A01 T01241045  RH  030%=      5-min Rain = 0
KDC1 231534Z 07001KT 12/M05 A3015 RMK A01 T01221048  RH  030%=      5-min Rain = 0
KDC1 231535Z 08000KT 12/M05 A3015 RMK A01 T01211049  RH  030%=      5-min Rain = 0
KDC1 231536Z 00000KT 12/M05 A3015 RMK A01 T01211050  RH  030%=      5-min Rain = 0
KDC1 231537Z 00000KT 12/M05 A3015 RMK A01 T01221049  RH  030%=      5-min Rain = 0
KDC1 231538Z 15000KT 13/M05 A3015 RMK A01 T01261048  RH  029%=      5-min Rain = 0
KDC1 231539Z 09001KT 13/M05 A3015 RMK A01 T01291047  RH  029%=      5-min Rain = 0
KDC1 231540Z 10000KT 13/M05 A3015 RMK A01 T01311048  RH  028%=      5-min Rain = 0
KDC1 231541Z 09002KT 13/M05 A3015 RMK A01 T01321048  RH  028%=      5-min Rain = 0
KDC1 231542Z 09002KT 13/M05 A3015 RMK A01 T01311048  RH  028%=      5-min Rain = 0
KDC1 231543Z 08000KT 13/M05 A3015 RMK A01 T01281049  RH  029%=      5-min Rain = 0
KDC1 231544Z 10000KT 13/M05 A3015 RMK A01 T01281049  RH  029%=      5-min Rain = 0
KDC1 231545Z 08001KT 13/M05 A3015 RMK A01 T01291047  RH  029%=      5-min Rain = 0
KDC1 231546Z 05000KT 13/M05 A3015 RMK A01 T01291046  RH  029%=      5-min Rain = 0
KDC1 231547Z 05000KT 13/M05 A3015 RMK A01 T01291045  RH  030%=      5-min Rain = 0
KDC1 231548Z 10000KT 13/M05 A3015 RMK A01 T01301045  RH  029%=      5-min Rain = 0
KDC1 231549Z 08001KT 13/M04 A3015 RMK A01 T01301044  RH  029%=      5-min Rain = 0
KDC1 231550Z 07001KT 13/M04 A3015 RMK A01 T01321041  RH  030%=      5-min Rain = 0
KDC1 231551Z 07001KT 13/M04 A3015 RMK A01 T01311039  RH  030%=      5-min Rain = 0
KDC1 231552Z 09001KT 13/M04 A3015 RMK A01 T01311042  RH  030%=      5-min Rain = 0
KDC1 231553Z 10000KT 13/M04 A3015 RMK A01 T01291044  RH  030%=      5-min Rain = 0
KDC1 231554Z 11001KT 13/M04 A3015 RMK A01 T01281042  RH  030%=      5-min Rain = 0
KDC1 231555Z 06001KT 13/M04 A3015 RMK A01 T01301038  RH  031%=      5-min Rain = 0
KDC1 231556Z 05002KT 13/M04 A3015 RMK A01 T01321039  RH  030%=      5-min Rain = 0
KDC1 231557Z 06001KT 13/M04 A3014 RMK A01 T01321041  RH  030%=      5-min Rain = 0
KDC1 231558Z 01001KT 13/M04 A3014 RMK A01 T01321038  RH  030%=      5-min Rain = 0
KDC1 231559Z 05002KT 13/M04 A3014 RMK A01 T01341037  RH  030%=      5-min Rain = 0
KDC1 231600Z 04002KT 13/M04 A3014 RMK A01 T01341042  RH  029%=      5-min Rain = 0
KDC1 231601Z 03002KT 13/M04 A3014 RMK A01 T01331043  RH  029%=      5-min Rain = 0
KDC1 231602Z 01002KT 13/M05 A3014 RMK A01 T01331045  RH  029%=      5-min Rain = 0
KDC1 231603Z 00001KT 13/M04 A3014 RMK A01 T01321041  RH  030%=      5-min Rain = 0
KDC1 231604Z 00000KT 13/M05 A3014 RMK A01 T01341046  RH  028%=      5-min Rain = 0
KDC1 231605Z 05000KT 14/M04 A3014 RMK A01 T01371041  RH  029%=      5-min Rain = 0
KDC1 231606Z 00001KT 14/M04 A3014 RMK A01 T01391041  RH  028%=      5-min Rain = 0
KDC1 231607Z 32001KT 14/M05 A3014 RMK A01 T01391046  RH  027%=      5-min Rain = 0
KDC1 231608Z 01001KT 14/M04 A3014 RMK A01 T01391043  RH  028%=      5-min Rain = 0
KDC1 231609Z 04001KT 14/M04 A3014 RMK A01 T01401040  RH  029%=      5-min Rain = 0
KDC1 231610Z 02002KT 14/M04 A3014 RMK A01 T01401041  RH  028%=      5-min Rain = 0
KDC1 231611Z 04002KT 14/M05 A3014 RMK A01 T01391050  RH  027%=      5-min Rain = 0
KDC1 231612Z 03002KT 14/M05 A3014 RMK A01 T01381052  RH  026%=      5-min Rain = 0
KDC1 231613Z 02002KT 14/M06 A3014 RMK A01 T01381055  RH  026%=      5-min Rain = 0
KDC1 231614Z 35000KT 14/M05 A3014 RMK A01 T01381050  RH  027%=      5-min Rain = 0
KDC1 231615Z 00000KT 14/M05 A3014 RMK A01 T01381052  RH  026%=      5-min Rain = 0
KDC1 231616Z 00000KT 14/M05 A3014 RMK A01 T01411049  RH  027%=      5-min Rain = 0
KDC1 231617Z 15000KT 14/M05 A3014 RMK A01 T01431051  RH  026%=      5-min Rain = 0
KDC1 231618Z 12001KT 15/M05 A3014 RMK A01 T01461049  RH  026%=      5-min Rain = 0
KDC1 231619Z 00000KT 15/M04 A3014 RMK A01 T01491044  RH  026%=      5-min Rain = 0
KDC1 231620Z 16000KT 15/M05 A3014 RMK A01 T01521048  RH  025%=      5-min Rain = 0
KDC1 231621Z 14000KT 15/M05 A3014 RMK A01 T01521050  RH  024%=      5-min Rain = 0
KDC1 231622Z 14000KT 15/M05 A3014 RMK A01 T01521048  RH  025%=      5-min Rain = 0
KDC1 231623Z 00000KT 15/M05 A3014 RMK A01 T01541047  RH  025%=      5-min Rain = 0
KDC1 231624Z 22000KT 16/M05 A3014 RMK A01 T01561048  RH  024%=      5-min Rain = 0
KDC1 231625Z 28000KT 16/M05 A3014 RMK A01 T01561045  RH  025%=      5-min Rain = 0
KDC1 231626Z 30001KT 16/M05 A3014 RMK A01 T01561047  RH  024%=      5-min Rain = 0
KDC1 231627Z 24000KT 15/M05 A3014 RMK A01 T01541050  RH  024%=      5-min Rain = 0
KDC1 231628Z 28001KT 15/M05 A3014 RMK A01 T01531047  RH  025%=      5-min Rain = 0
KDC1 231629Z 31001KT 15/M05 A3014 RMK A01 T01531046  RH  025%=      5-min Rain = 0
KDC1 231630Z 33001KT 15/M05 A3014 RMK A01 T01531046  RH  025%=      5-min Rain = 0
KDC1 231631Z 30000KT 15/M05 A3014 RMK A01 T01521047  RH  025%=      5-min Rain = 0
KDC1 231632Z 17002KT 15/M04 A3014 RMK A01 T01531043  RH  026%=      5-min Rain = 0
KDC1 231633Z 17002KT 15/M04 A3014 RMK A01 T01531042  RH  026%=      5-min Rain = 0
KDC1 231634Z 14002KT 15/M04 A3014 RMK A01 T01541041  RH  026%=      5-min Rain = 0
KDC1 231635Z 16002KT 16/M04 A3014 RMK A01 T01551041  RH  026%=      5-min Rain = 0
KDC1 231636Z 23001KT 16/M04 A3014 RMK A01 T01551042  RH  025%=      5-min Rain = 0
KDC1 231637Z 19003KT 16/M04 A3014 RMK A01 T01551041  RH  026%=      5-min Rain = 0
KDC1 231638Z 21001KT 16/M04 A3014 RMK A01 T01551042  RH  025%=      5-min Rain = 0
KDC1 231639Z 14001KT 16/M04 A3014 RMK A01 T01561040  RH  026%=      5-min Rain = 0
KDC1 231640Z 16000KT 16/M04 A3014 RMK A01 T01581040  RH  025%=      5-min Rain = 0
KDC1 231641Z 17001KT 16/M04 A3014 RMK A01 T01591041  RH  025%=      5-min Rain = 0
KDC1 231642Z 17001KT 16/M04 A3014 RMK A01 T01611039  RH  025%=      5-min Rain = 0
KDC1 231643Z 21002KT 16/M03 A3014 RMK A01 T01641033  RH  026%=      5-min Rain = 0
KDC1 231644Z 23002KT 16/M04 A3014 RMK A01 T01641037  RH  025%=      5-min Rain = 0
KDC1 231645Z 25002KT 16/M04 A3014 RMK A01 T01611042  RH  025%=      5-min Rain = 0
KDC1 231646Z 28001KT 16/M04 A3014 RMK A01 T01571043  RH  025%=      5-min Rain = 0
KDC1 231647Z 16000KT 16/M04 A3014 RMK A01 T01571039  RH  026%=      5-min Rain = 0
KDC1 231648Z 15000KT 16/M04 A3014 RMK A01 T01591036  RH  026%=      5-min Rain = 0
KDC1 231649Z 19000KT 16/M04 A3015 RMK A01 T01611038  RH  025%=      5-min Rain = 0
KDC1 231650Z 13002KT 16/M04 A3015 RMK A01 T01631036  RH  025%=      5-min Rain = 0
KDC1 231651Z 20002KT 17/M03 A3015 RMK A01 T01651033  RH  026%=      5-min Rain = 0
KDC1 231652Z 22004KT 17/M04 A3015 RMK A01 T01671038  RH  024%=      5-min Rain = 0
KDC1 231653Z 24003KT 17/M04 A3014 RMK A01 T01651042  RH  024%=      5-min Rain = 0
KDC1 231654Z 25002KT 16/M04 A3014 RMK A01 T01621042  RH  024%=      5-min Rain = 0
KDC1 231655Z 25001KT 16/M04 A3014 RMK A01 T01601043  RH  024%=      5-min Rain = 0
KDC1 231656Z 19002KT 16/M04 A3014 RMK A01 T01601041  RH  025%=      5-min Rain = 0
KDC1 231657Z 19003KT 16/M05 A3014 RMK A01 T01601045  RH  024%=      5-min Rain = 0
KDC1 231658Z 16001KT 16/M05 A3014 RMK A01 T01591045  RH  024%=      5-min Rain = 0
KDC1 231659Z 13000KT 16/M04 A3014 RMK A01 T01601042  RH  025%=      5-min Rain = 0
KDC1 231700Z 14001KT 16/M04 A3014 RMK A01 T01631040  RH  025%=      5-min Rain = 0
KDC1 231701Z 13002KT 17/M04 A3014 RMK A01 T01651043  RH  024%=      5-min Rain = 0
KDC1 231702Z 12000KT 17/M05 A3014 RMK A01 T01651045  RH  023%=      5-min Rain = 0
KDC1 231703Z 07001KT 16/M04 A3014 RMK A01 T01641043  RH  024%=      5-min Rain = 0
KDC1 231704Z 09001KT 16/M04 A3014 RMK A01 T01641043  RH  024%=      5-min Rain = 0
KDC1 231705Z 08001KT 17/M04 A3014 RMK A01 T01651040  RH  024%=      5-min Rain = 0
KDC1 231706Z 09002KT 17/M04 A3014 RMK A01 T01661036  RH  025%=      5-min Rain = 0
KDC1 231707Z 12003KT 17/M04 A3014 RMK A01 T01671037  RH  025%=      5-min Rain = 0
KDC1 231708Z 13002KT 17/M04 A3014 RMK A01 T01671038  RH  024%=      5-min Rain = 0
KDC1 231709Z 16002KT 17/M03 A3014 RMK A01 T01671033  RH  025%=      5-min Rain = 0
KDC1 231710Z 23001KT 17/M03 A3014 RMK A01 T01681032  RH  025%=      5-min Rain = 0
KDC1 231711Z 16002KT 17/M04 A3014 RMK A01 T01701038  RH  024%=      5-min Rain = 0
KDC1 231712Z 10003KT 17/M03 A3014 RMK A01 T01711028  RH  025%=      5-min Rain = 0
KDC1 231713Z 19003KT 17/M03 A3014 RMK A01 T01721025  RH  026%=      5-min Rain = 0
KDC1 231714Z 16003KT 17/M04 A3014 RMK A01 T01731036  RH  024%=      5-min Rain = 0
KDC1 231715Z 13001KT 17/M04 A3014 RMK A01 T01711038  RH  024%=      5-min Rain = 0
KDC1 231716Z 18002KT 17/M04 A3014 RMK A01 T01701036  RH  024%=      5-min Rain = 0
KDC1 231717Z 17002KT 17/M04 A3014 RMK A01 T01711040  RH  023%=      5-min Rain = 0
KDC1 231718Z 13003KT 17/M03 A3014 RMK A01 T01711031  RH  025%=      5-min Rain = 0
KDC1 231719Z 14003KT 17/M03 A3014 RMK A01 T01731025  RH  026%=      5-min Rain = 0
KDC1 231720Z 12003KT 17/M03 A3014 RMK A01 T01731029  RH  025%=      5-min Rain = 0
KDC1 231721Z 11003KT 17/M03 A3014 RMK A01 T01731027  RH  025%=      5-min Rain = 0
KDC1 231722Z 11004KT 17/M03 A3014 RMK A01 T01721029  RH  025%=      5-min Rain = 0
KDC1 231723Z 11004KT 17/M03 A3014 RMK A01 T01711029  RH  025%=      5-min Rain = 0
KDC1 231724Z 12002KT 17/M03 A3014 RMK A01 T01711029  RH  025%=      5-min Rain = 0
KDC1 231725Z 10002KT 17/M03 A3014 RMK A01 T01711030  RH  025%=      5-min Rain = 0
KDC1 231726Z 09003KT 17/M03 A3014 RMK A01 T01721031  RH  025%=      5-min Rain = 0
KDC1 231727Z 08002KT 17/M03 A3014 RMK A01 T01721031  RH  025%=      5-min Rain = 0
KDC1 231728Z 09002KT 17/M03 A3014 RMK A01 T01721032  RH  025%=      5-min Rain = 0
KDC1 231729Z 07002KT 17/M03 A3014 RMK A01 T01721032  RH  025%=      5-min Rain = 0
KDC1 231730Z 10002KT 17/M03 A3014 RMK A01 T01721032  RH  025%=      5-min Rain = 0
KDC1 231731Z 10002KT 17/M03 A3014 RMK A01 T01741028  RH  025%=      5-min Rain = 0
KDC1 231732Z 06003KT 18/M03 A3014 RMK A01 T01751033  RH  024%=      5-min Rain = 0
KDC1 231733Z 05002KT 17/M04 A3013 RMK A01 T01741036  RH  024%=      5-min Rain = 0
KDC1 231734Z 07002KT 17/M03 A3013 RMK A01 T01731034  RH  024%=      5-min Rain = 0
KDC1 231735Z 07001KT 17/M03 A3013 RMK A01 T01741034  RH  024%=      5-min Rain = 0
KDC1 231736Z 10001KT 18/M04 A3013 RMK A01 T01751035  RH  024%=      5-min Rain = 0
KDC1 231737Z 13002KT 18/M03 A3013 RMK A01 T01771033  RH  024%=      5-min Rain = 0
KDC1 231738Z 12002KT 18/M03 A3013 RMK A01 T01791032  RH  024%=      5-min Rain = 0
KDC1 231739Z 10002KT 18/M03 A3013 RMK A01 T01801032  RH  023%=      5-min Rain = 0
KDC1 231740Z 07001KT 18/M03 A3013 RMK A01 T01821032  RH  023%=      5-min Rain = 0
KDC1 231741Z 07001KT 18/M03 A3013 RMK A01 T01801033  RH  023%=      5-min Rain = 0
KDC1 231742Z 07000KT 18/M03 A3013 RMK A01 T01791029  RH  024%=      5-min Rain = 0
KDC1 231743Z 00000KT 18/M03 A3013 RMK A01 T01811032  RH  023%=      5-min Rain = 0
KDC1 231744Z 36000KT 18/M03 A3013 RMK A01 T01821030  RH  023%=      5-min Rain = 0
KDC1 231745Z 21001KT 18/M03 A3013 RMK A01 T01831027  RH  024%=      5-min Rain = 0
KDC1 231746Z 15001KT 19/M03 A3013 RMK A01 T01851025  RH  024%=      5-min Rain = 0
KDC1 231747Z 25001KT 19/M03 A3013 RMK A01 T01881031  RH  022%=      5-min Rain = 0
KDC1 231748Z 29002KT 19/M04 A3013 RMK A01 T01901036  RH  021%=      5-min Rain = 0
KDC1 231749Z 30003KT 19/M04 A3013 RMK A01 T01901040  RH  021%=      5-min Rain = 0
KDC1 231750Z 30003KT 19/M04 A3013 RMK A01 T01881042  RH  021%=      5-min Rain = 0
KDC1 231751Z 31003KT 19/M04 A3013 RMK A01 T01861044  RH  021%=      5-min Rain = 0
KDC1 231752Z 33004KT 19/M04 A3012 RMK A01 T01851044  RH  021%=      5-min Rain = 0
KDC1 231753Z 01002KT 18/M05 A3012 RMK A01 T01831046  RH  021%=      5-min Rain = 0
KDC1 231754Z 06003KT 18/M04 A3012 RMK A01 T01821042  RH  021%=      5-min Rain = 0
KDC1 231755Z 08003KT 18/M04 A3012 RMK A01 T01821041  RH  022%=      5-min Rain = 0
KDC1 231756Z 08003KT 18/M04 A3012 RMK A01 T01811042  RH  021%=      5-min Rain = 0
KDC1 231757Z 06002KT 18/M04 A3012 RMK A01 T01801041  RH  022%=      5-min Rain = 0
KDC1 231758Z 02001KT 18/M04 A3012 RMK A01 T01811039  RH  022%=      5-min Rain = 0
KDC1 231759Z 01002KT 18/M04 A3012 RMK A01 T01841040  RH  022%=      5-min Rain = 0
KDC1 231800Z 02003KT 19/M04 A3012 RMK A01 T01851039  RH  021%=      5-min Rain = 0
KDC1 231801Z 04003KT 19/M04 A3012 RMK A01 T01861037  RH  022%=      5-min Rain = 0
KDC1 231802Z 08004KT 19/M03 A3012 RMK A01 T01881031  RH  022%=      5-min Rain = 0
KDC1 231803Z 10001KT 19/M03 A3012 RMK A01 T01881034  RH  022%=      5-min Rain = 0
KDC1 231804Z 10002KT 19/M03 A3012 RMK A01 T01891032  RH  022%=      5-min Rain = 0
KDC1 231805Z 12005KT 19/M03 A3011 RMK A01 T01901028  RH  023%=      5-min Rain = 0
KDC1 231806Z 13003KT 19/M03 A3012 RMK A01 T01901028  RH  023%=      5-min Rain = 0
KDC1 231807Z 11003KT 19/M03 A3012 RMK A01 T01891030  RH  022%=      5-min Rain = 0
KDC1 231808Z 10003KT 19/M03 A3012 RMK A01 T01881031  RH  022%=      5-min Rain = 0
KDC1 231809Z 15003KT 19/M03 A3011 RMK A01 T01881033  RH  022%=      5-min Rain = 0
KDC1 231810Z 21002KT 19/M03 A3011 RMK A01 T01891032  RH  022%=      5-min Rain = 0
KDC1 231811Z 16005KT 19/M03 A3011 RMK A01 T01911031  RH  022%=      5-min Rain = 0
KDC1 231812Z 14006KT 19/M04 A3011 RMK A01 T01911038  RH  021%=      5-min Rain = 0
KDC1 231813Z 14006KT 19/M04 A3011 RMK A01 T01871038  RH  021%=      5-min Rain = 0
KDC1 231814Z 15005KT 19/M04 A3011 RMK A01 T01851037  RH  022%=      5-min Rain = 0
KDC1 231815Z 15004KT 18/M04 A3011 RMK A01 T01841038  RH  022%=      5-min Rain = 0
KDC1 231816Z 11003KT 19/M04 A3011 RMK A01 T01851035  RH  022%=      5-min Rain = 0
KDC1 231817Z 09002KT 19/M04 A3011 RMK A01 T01861035  RH  022%=      5-min Rain = 0
KDC1 231818Z 07003KT 19/M04 A3011 RMK A01 T01871036  RH  022%=      5-min Rain = 0
KDC1 231819Z 13002KT 19/M03 A3011 RMK A01 T01881034  RH  022%=      5-min Rain = 0
KDC1 231820Z 07001KT 19/M03 A3011 RMK A01 T01891032  RH  022%=      5-min Rain = 0
KDC1 231821Z 10002KT 19/M03 A3011 RMK A01 T01921034  RH  021%=      5-min Rain = 0
KDC1 231822Z 14003KT 19/M04 A3011 RMK A01 T01921035  RH  021%=      5-min Rain = 0
KDC1 231823Z 18003KT 19/M03 A3011 RMK A01 T01921034  RH  021%=      5-min Rain = 0
KDC1 231824Z 17003KT 19/M04 A3011 RMK A01 T01921038  RH  021%=      5-min Rain = 0
KDC1 231825Z 16003KT 19/M03 A3011 RMK A01 T01931032  RH  022%=      5-min Rain = 0
KDC1 231826Z 17004KT 19/M03 A3011 RMK A01 T01941030  RH  022%=      5-min Rain = 0
KDC1 231827Z 16005KT 20/M02 A3011 RMK A01 T01951024  RH  023%=      5-min Rain = 0
KDC1 231828Z 15005KT 20/M02 A3011 RMK A01 T01981021  RH  023%=      5-min Rain = 0
KDC1 231829Z 17004KT 20/M03 A3011 RMK A01 T01981026  RH  022%=      5-min Rain = 0
KDC1 231830Z 18002KT 20/M04 A3011 RMK A01 T01981035  RH  020%=      5-min Rain = 0
KDC1 231831Z 15004KT 20/M04 A301 RMK A01 T01971037  RH  020%=      5-min Rain = 0
KDC1 231832Z 15002KT 20/M04 A301 RMK A01 T01961039  RH  020%=      5-min Rain = 0
KDC1 231833Z 17004KT 20/M04 A301 RMK A01 T01951037  RH  021%=      5-min Rain = 0
KDC1 231834Z 16003KT 20/M04 A301 RMK A01 T01951037  RH  021%=      5-min Rain = 0
KDC1 231835Z 14003KT 20/M04 A301 RMK A01 T01951039  RH  020%=      5-min Rain = 0
KDC1 231836Z 19003KT 20/M04 A301 RMK A01 T01951037  RH  021%=      5-min Rain = 0
KDC1 231837Z 20002KT 19/M04 A301 RMK A01 T01941036  RH  021%=      5-min Rain = 0
KDC1 231838Z 21002KT 20/M03 A301 RMK A01 T01961033  RH  021%=      5-min Rain = 0
KDC1 231839Z 20002KT 20/M03 A301 RMK A01 T01971031  RH  021%=      5-min Rain = 0
KDC1 231840Z 21003KT 20/M03 A301 RMK A01 T01981032  RH  021%=      5-min Rain = 0
KDC1 231841Z 20002KT 20/M03 A301 RMK A01 T01991031  RH  021%=      5-min Rain = 0
KDC1 231842Z 18003KT 20/M03 A301 RMK A01 T01991034  RH  021%=      5-min Rain = 0
KDC1 231843Z 23003KT 20/M04 A301 RMK A01 T01981036  RH  020%=      5-min Rain = 0
KDC1 231844Z 26003KT 20/M04 A301 RMK A01 T01981036  RH  020%=      5-min Rain = 0
KDC1 231845Z 28005KT 20/M04 A301 RMK A01 T01981036  RH  020%=      5-min Rain = 0
KDC1 231846Z 26005KT 20/M04 A301 RMK A01 T01981039  RH  020%=      5-min Rain = 0
KDC1 231847Z 27003KT 20/M04 A301 RMK A01 T01971044  RH  019%=      5-min Rain = 0
KDC1 231848Z 24004KT 20/M05 A301 RMK A01 T01961052  RH  018%=      5-min Rain = 0
KDC1 231849Z 24005KT 20/M06 A301 RMK A01 T01961058  RH  017%=      5-min Rain = 0
KDC1 231850Z 28009KT 20/M07 A301 RMK A01 T01991070  RH  016%=      5-min Rain = 0
KDC1 231851Z 29011KT 20/M08 A3009 RMK A01 T02031080  RH  014%=      5-min Rain = 0
KDC1 231852Z 29013G18KT 21/M08 A3009 RMK A01 T02061081  RH  014%=      5-min Rain = 0
KDC1 231853Z 28008KT 21/M09 A3009 RMK A01 T02081088  RH  013%=      5-min Rain = 0
KDC1 231854Z 29009KT 21/M09 A3009 RMK A01 T02071090  RH  013%=      5-min Rain = 0
KDC1 231855Z 30008KT 21/M09 A3009 RMK A01 T02061088  RH  013%=      5-min Rain = 0
KDC1 231856Z 31009KT 21/M08 A3009 RMK A01 T02051083  RH  014%=      5-min Rain = 0
KDC1 231857Z 29013KT 21/M08 A3009 RMK A01 T02061076  RH  014%=      5-min Rain = 0
KDC1 231858Z 32010KT 21/M08 A3009 RMK A01 T02061079  RH  014%=      5-min Rain = 0
KDC1 231859Z 33008KT 21/M08 A3009 RMK A01 T02051080  RH  014%=      5-min Rain = 0
KDC1 231900Z 32007KT 20/M08 A3009 RMK A01 T02041081  RH  014%=      5-min Rain = 0
KDC1 231901Z 30009KT 20/M08 A3009 RMK A01 T02031081  RH  014%=      5-min Rain = 0
KDC1 231902Z 29008KT 20/M08 A3009 RMK A01 T02031080  RH  014%=      5-min Rain = 0
KDC1 231903Z 27008KT 21/M08 A3009 RMK A01 T02051076  RH  014%=      5-min Rain = 0
KDC1 231904Z 25011G20KT 21/M07 A3009 RMK A01 T02071067  RH  015%=      5-min Rain = 0
KDC1 231905Z 27015KT 21/M07 A3009 RMK A01 T02101065  RH  015%=      5-min Rain = 0
KDC1 231906Z 26014KT 21/M06 A3009 RMK A01 T02141061  RH  015%=      5-min Rain = 0
KDC1 231907Z 25011KT 22/M06 A3009 RMK A01 T02151063  RH  015%=      5-min Rain = 0
KDC1 231908Z 28011KT 21/M07 A3009 RMK A01 T02131065  RH  015%=      5-min Rain = 0
KDC1 231909Z 28009KT 21/M07 A3009 RMK A01 T02121073  RH  014%=      5-min Rain = 0
KDC1 231910Z 28010KT 21/M07 A3008 RMK A01 T02121070  RH  014%=      5-min Rain = 0
KDC1 231911Z 26010KT 21/M06 A3009 RMK A01 T02121064  RH  015%=      5-min Rain = 0
KDC1 231912Z 25008KT 21/M07 A3009 RMK A01 T02141067  RH  015%=      5-min Rain = 0
KDC1 231913Z 24008KT 22/M07 A3008 RMK A01 T02151070  RH  014%=      5-min Rain = 0
KDC1 231914Z 25006KT 21/M07 A3008 RMK A01 T02141067  RH  015%=      5-min Rain = 0
KDC1 231915Z 24010KT 21/M07 A3008 RMK A01 T02141070  RH  014%=      5-min Rain = 0
KDC1 231916Z 26009KT 21/M07 A3008 RMK A01 T02131071  RH  014%=      5-min Rain = 0
KDC1 231917Z 25007KT 21/M07 A3008 RMK A01 T02121069  RH  014%=      5-min Rain = 0
KDC1 231918Z 25006KT 21/M07 A3008 RMK A01 T02101067  RH  015%=      5-min Rain = 0
KDC1 231919Z 26006KT 21/M07 A3008 RMK A01 T02101067  RH  015%=      5-min Rain = 0
KDC1 231920Z 29011KT 21/M07 A3008 RMK A01 T02121066  RH  015%=      5-min Rain = 0
KDC1 231921Z 29014KT 21/M07 A3008 RMK A01 T02131067  RH  015%=      5-min Rain = 0
KDC1 231922Z 29011KT 21/M07 A3008 RMK A01 T02131070  RH  014%=      5-min Rain = 0
KDC1 231923Z 29013G18KT 21/M07 A3008 RMK A01 T02121069  RH  014%=      5-min Rain = 0
KDC1 231924Z 28017KT 21/M07 A3008 RMK A01 T02121068  RH  015%=      5-min Rain = 0
KDC1 231925Z 28014G19KT 21/M07 A3008 RMK A01 T02121068  RH  015%=      5-min Rain = 0
KDC1 231926Z 29012KT 21/M07 A3008 RMK A01 T02111067  RH  015%=      5-min Rain = 0
KDC1 231927Z 26009KT 21/M07 A3008 RMK A01 T02111068  RH  015%=      5-min Rain = 0
KDC1 231928Z 26008KT 21/M07 A3008 RMK A01 T02101067  RH  015%=      5-min Rain = 0
KDC1 231929Z 28010KT 21/M07 A3008 RMK A01 T02111069  RH  015%=      5-min Rain = 0
KDC1 231930Z 27007KT 21/M07 A3008 RMK A01 T02111067  RH  015%=      5-min Rain = 0
KDC1 231931Z 26010KT 21/M06 A3008 RMK A01 T02121059  RH  016%=      5-min Rain = 0
KDC1 231932Z 28011KT 22/M06 A3008 RMK A01 T02151058  RH  015%=      5-min Rain = 0
KDC1 231933Z 26013KT 22/M07 A3008 RMK A01 T02171066  RH  014%=      5-min Rain = 0
KDC1 231934Z 26013KT 22/M08 A3008 RMK A01 T02171078  RH  013%=      5-min Rain = 0
KDC1 231935Z 26012KT 22/M08 A3008 RMK A01 T02171079  RH  013%=      5-min Rain = 0
KDC1 231936Z 24010KT 22/M08 A3008 RMK A01 T02181079  RH  013%=      5-min Rain = 0
KDC1 231937Z 24010G15KT 22/M08 A3008 RMK A01 T02181082  RH  013%=      5-min Rain = 0
KDC1 231938Z 24012KT 22/M08 A3007 RMK A01 T02171077  RH  013%=      5-min Rain = 0
KDC1 231939Z 26011KT 22/M07 A3007 RMK A01 T02171073  RH  014%=      5-min Rain = 0
KDC1 231940Z 24010KT 22/M07 A3007 RMK A01 T02191071  RH  014%=      5-min Rain = 0
KDC1 231941Z 24010KT 22/M08 A3007 RMK A01 T02201075  RH  013%=      5-min Rain = 0
KDC1 231942Z 25014KT 22/M07 A3007 RMK A01 T02201072  RH  013%=      5-min Rain = 0
KDC1 231943Z 26013KT 22/M07 A3007 RMK A01 T02171070  RH  014%=      5-min Rain = 0
KDC1 231944Z 26013KT 22/M07 A3007 RMK A01 T02161068  RH  014%=      5-min Rain = 0
KDC1 231945Z 27013KT 22/M07 A3007 RMK A01 T02171069  RH  014%=      5-min Rain = 0
KDC1 231946Z 28009KT 22/M08 A3007 RMK A01 T02191082  RH  013%=      5-min Rain = 0
KDC1 231947Z 26008KT 22/M08 A3007 RMK A01 T02161083  RH  013%=      5-min Rain = 0
KDC1 231948Z 25007KT 22/M08 A3007 RMK A01 T02151077  RH  013%=      5-min Rain = 0
KDC1 231949Z 28004KT 22/M08 A3007 RMK A01 T02161079  RH  013%=      5-min Rain = 0
KDC1 231950Z 27005KT 22/M09 A3007 RMK A01 T02161086  RH  012%=      5-min Rain = 0
KDC1 231951Z 27006G11KT 22/M08 A3007 RMK A01 T02151082  RH  013%=      5-min Rain = 0
KDC1 231952Z 26008KT 22/M08 A3007 RMK A01 T02151081  RH  013%=      5-min Rain = 0
KDC1 231953Z 27012KT 22/M08 A3007 RMK A01 T02161081  RH  013%=      5-min Rain = 0
KDC1 231954Z 27012KT 22/M08 A3007 RMK A01 T02191076  RH  013%=      5-min Rain = 0
KDC1 231955Z 28017KT 22/M08 A3007 RMK A01 T02221082  RH  012%=      5-min Rain = 0
KDC1 231956Z 26016KT 22/M09 A3007 RMK A01 T02211085  RH  012%=      5-min Rain = 0
KDC1 231957Z 26010KT 22/M09 A3007 RMK A01 T02181091  RH  012%=      5-min Rain = 0
KDC1 231958Z 25008KT 22/M10 A3007 RMK A01 T02161097  RH  011%=      5-min Rain = 0
KDC1 231959Z 27013KT 22/M10 A3007 RMK A01 T02161095  RH  012%=      5-min Rain = 0
KDC1 232000Z 27014KT 22/M10 A3007 RMK A01 T02161099  RH  011%=      5-min Rain = 0
KDC1 232001Z 26014KT 22/M10 A3007 RMK A01 T02171095  RH  012%=      5-min Rain = 0
KDC1 232002Z 27013KT 22/M10 A3007 RMK A01 T02181100  RH  011%=      5-min Rain = 0
KDC1 232003Z 26014G19KT 22/M10 A3007 RMK A01 T02171102  RH  011%=      5-min Rain = 0
KDC1 232004Z 27015KT 22/M10 A3006 RMK A01 T02181098  RH  011%=      5-min Rain = 0
KDC1 232005Z 27011G16KT 22/M10 A3006 RMK A01 T02171104  RH  011%=      5-min Rain = 0
KDC1 232006Z 26008KT 22/M11 A3006 RMK A01 T02151109  RH  010%=      5-min Rain = 0
KDC1 232007Z 25007KT 22/M11 A3006 RMK A01 T02151107  RH  011%=      5-min Rain = 0
KDC1 232008Z 23006KT 22/M11 A3006 RMK A01 T02151105  RH  011%=      5-min Rain = 0
KDC1 232009Z 24006KT 22/M10 A3006 RMK A01 T02171103  RH  011%=      5-min Rain = 0
KDC1 232010Z 30008KT 22/M10 A3006 RMK A01 T02191104  RH  011%=      5-min Rain = 0
KDC1 232011Z 28009KT 22/M12 A3006 RMK A01 T02191115  RH  010%=      5-min Rain = 0
KDC1 232012Z 28009KT 22/M11 A3006 RMK A01 T02191106  RH  010%=      5-min Rain = 0
KDC1 232013Z 27013KT 22/M10 A3006 RMK A01 T02191102  RH  011%=      5-min Rain = 0
KDC1 232014Z 25012KT 22/M10 A3006 RMK A01 T02201097  RH  011%=      5-min Rain = 0
KDC1 232015Z 25010G15KT 22/M10 A3006 RMK A01 T02211095  RH  011%=      5-min Rain = 0
KDC1 232016Z 24012KT 22/M10 A3006 RMK A01 T02221095  RH  011%=      5-min Rain = 0
KDC1 232017Z 27010KT 22/M10 A3006 RMK A01 T02211098  RH  011%=      5-min Rain = 0
KDC1 232018Z 28012KT 22/M10 A3006 RMK A01 T02211096  RH  011%=      5-min Rain = 0
KDC1 232019Z 27014KT 22/M09 A3006 RMK A01 T02241092  RH  011%=      5-min Rain = 0
KDC1 232020Z 29011KT 22/M10 A3006 RMK A01 T02221104  RH  010%=      5-min Rain = 0
KDC1 232021Z 27007KT 22/M10 A3006 RMK A01 T02181101  RH  011%=      5-min Rain = 0
KDC1 232022Z 26009KT 22/M10 A3006 RMK A01 T02191098  RH  011%=      5-min Rain = 0
KDC1 232023Z 27010KT 22/M09 A3006 RMK A01 T02191089  RH  012%=      5-min Rain = 0
KDC1 232024Z 26013KT 22/M09 A3006 RMK A01 T02241088  RH  012%=      5-min Rain = 0
KDC1 232025Z 26012KT 22/M10 A3006 RMK A01 T02231098  RH  011%=      5-min Rain = 0
KDC1 232026Z 28009KT 22/M10 A3006 RMK A01 T02201099  RH  011%=      5-min Rain = 0
KDC1 232027Z 29007KT 22/M10 A3006 RMK A01 T02171101  RH  011%=      5-min Rain = 0
KDC1 232028Z 28009KT 22/M10 A3005 RMK A01 T02171098  RH  011%=      5-min Rain = 0
KDC1 232029Z 28006KT 22/M10 A3005 RMK A01 T02161098  RH  011%=      5-min Rain = 0
KDC1 232030Z 27012G17KT 22/M09 A3005 RMK A01 T02161091  RH  012%=      5-min Rain = 0
KDC1 232031Z 27013KT 22/M10 A3005 RMK A01 T02201101  RH  011%=      5-min Rain = 0
KDC1 232032Z 27010KT 22/M11 A3005 RMK A01 T02191110  RH  010%=      5-min Rain = 0
KDC1 232033Z 27011G16KT 22/M10 A3005 RMK A01 T02191100  RH  011%=      5-min Rain = 0
KDC1 232034Z 27014G19KT 22/M09 A3005 RMK A01 T02211094  RH  011%=      5-min Rain = 0
KDC1 232035Z 26014KT 22/M09 A3005 RMK A01 T02221091  RH  012%=      5-min Rain = 0
KDC1 232036Z 26009KT 22/M09 A3006 RMK A01 T02241091  RH  011%=      5-min Rain = 0
KDC1 232037Z 27008KT 22/M09 A3005 RMK A01 T02241092  RH  011%=      5-min Rain = 0
KDC1 232038Z 27007KT 22/M10 A3005 RMK A01 T02231099  RH  011%=      5-min Rain = 0
KDC1 232039Z 29007KT 22/M10 A3005 RMK A01 T02211101  RH  011%=      5-min Rain = 0
KDC1 232040Z 27009KT 22/M10 A3005 RMK A01 T02201097  RH  011%=      5-min Rain = 0
KDC1 232041Z 27012G17KT 22/M10 A3005 RMK A01 T02211095  RH  011%=      5-min Rain = 0
KDC1 232042Z 27015KT 22/M10 A3005 RMK A01 T02241096  RH  011%=      5-min Rain = 0
KDC1 232043Z 28014KT 22/M11 A3005 RMK A01 T02241106  RH  010%=      5-min Rain = 0
KDC1 232044Z 26013KT 22/M11 A3005 RMK A01 T02211107  RH  010%=      5-min Rain = 0
KDC1 232045Z 27012KT 22/M10 A3005 RMK A01 T02211100  RH  011%=      5-min Rain = 0
KDC1 232046Z 27009KT 22/M11 A3005 RMK A01 T02211107  RH  010%=      5-min Rain = 0
KDC1 232047Z 27008KT 22/M11 A3005 RMK A01 T02201105  RH  010%=      5-min Rain = 0
KDC1 232048Z 29011KT 22/M10 A3005 RMK A01 T02211104  RH  010%=      5-min Rain = 0
KDC1 232049Z 29011KT 22/M11 A3005 RMK A01 T02201107  RH  010%=      5-min Rain = 0
KDC1 232050Z 28010KT 22/M11 A3005 RMK A01 T02191106  RH  010%=      5-min Rain = 0
KDC1 232051Z 29008KT 22/M11 A3005 RMK A01 T02181111  RH  010%=      5-min Rain = 0
KDC1 232052Z 27011G16KT 22/M11 A3005 RMK A01 T02171106  RH  011%=      5-min Rain = 0
KDC1 232053Z 27009KT 22/M11 A3005 RMK A01 T02181105  RH  011%=      5-min Rain = 0
KDC1 232054Z 25010KT 22/M10 A3004 RMK A01 T02191099  RH  011%=      5-min Rain = 0
KDC1 232055Z 27012KT 22/M10 A3004 RMK A01 T02221101  RH  011%=      5-min Rain = 0
KDC1 232056Z 28011KT 22/M11 A3004 RMK A01 T02221106  RH  010%=      5-min Rain = 0
KDC1 232057Z 26013KT 22/M09 A3004 RMK A01 T02231094  RH  011%=      5-min Rain = 0
KDC1 232058Z 26011KT 23/M10 A3004 RMK A01 T02261102  RH  010%=      5-min Rain = 0
KDC1 232059Z 26009KT 22/M11 A3004 RMK A01 T02221106  RH  010%=      5-min Rain = 0
KDC1 232100Z 27012KT 22/M11 A3004 RMK A01 T02191105  RH  011%=      5-min Rain = 0
KDC1 232101Z 28011KT 22/M10 A3004 RMK A01 T02191104  RH  011%=      5-min Rain = 0
KDC1 232102Z 29012KT 22/M11 A3004 RMK A01 T02191112  RH  010%=      5-min Rain = 0
KDC1 232103Z 28014KT 22/M11 A3004 RMK A01 T02181113  RH  010%=      5-min Rain = 0
KDC1 232104Z 28013KT 22/M12 A3004 RMK A01 T02171118  RH  010%=      5-min Rain = 0
KDC1 232105Z 27010KT 22/M12 A3004 RMK A01 T02161117  RH  010%=      5-min Rain = 0
KDC1 232106Z 27014KT 22/M11 A3004 RMK A01 T02181107  RH  010%=      5-min Rain = 0
KDC1 232107Z 28012KT 22/M11 A3004 RMK A01 T02191105  RH  010%=      5-min Rain = 0
KDC1 232108Z 28014KT 22/M10 A3004 RMK A01 T02211102  RH  011%=      5-min Rain = 0
KDC1 232109Z 29013KT 22/M11 A3004 RMK A01 T02211108  RH  010%=      5-min Rain = 0
KDC1 232110Z 28012KT 22/M11 A3004 RMK A01 T02221110  RH  010%=      5-min Rain = 0
KDC1 232111Z 27012KT 22/M10 A3004 RMK A01 T02241100  RH  011%=      5-min Rain = 0
KDC1 232112Z 28011KT 23/M10 A3004 RMK A01 T02271100  RH  010%=      5-min Rain = 0
KDC1 232113Z 28013KT 23/M10 A3003 RMK A01 T02281101  RH  010%=      5-min Rain = 0
KDC1 232114Z 27012KT 23/M10 A3003 RMK A01 T02281101  RH  010%=      5-min Rain = 0
KDC1 232115Z 28010KT 23/M10 A3003 RMK A01 T02271104  RH  010%=      5-min Rain = 0
KDC1 232116Z 27010KT 23/M11 A3003 RMK A01 T02251107  RH  010%=      5-min Rain = 0
KDC1 232117Z 24008KT 22/M11 A3003 RMK A01 T02221106  RH  010%=      5-min Rain = 0
KDC1 232118Z 24005KT 22/M10 A3003 RMK A01 T02221101  RH  011%=      5-min Rain = 0
KDC1 232119Z 27010G15KT 22/M10 A3003 RMK A01 T02241101  RH  011%=      5-min Rain = 0
KDC1 232120Z 27013KT 23/M10 A3003 RMK A01 T02251104  RH  010%=      5-min Rain = 0
KDC1 232121Z 25013KT 22/M11 A3003 RMK A01 T02241109  RH  010%=      5-min Rain = 0
KDC1 232122Z 26011KT 22/M11 A3003 RMK A01 T02211106  RH  010%=      5-min Rain = 0
KDC1 232123Z 26009KT 22/M10 A3003 RMK A01 T02191103  RH  011%=      5-min Rain = 0
KDC1 232124Z 26014KT 22/M10 A3003 RMK A01 T02191098  RH  011%=      5-min Rain = 0
KDC1 232125Z 27017KT 22/M09 A3003 RMK A01 T02201091  RH  012%=      5-min Rain = 0
KDC1 232126Z 26013KT 22/M09 A3003 RMK A01 T02201090  RH  012%=      5-min Rain = 0
KDC1 232127Z 27013KT 22/M09 A3003 RMK A01 T02211091  RH  012%=      5-min Rain = 0
KDC1 232128Z 27010KT 22/M09 A3003 RMK A01 T02221094  RH  011%=      5-min Rain = 0
KDC1 232129Z 27010KT 22/M10 A3003 RMK A01 T02221095  RH  011%=      5-min Rain = 0
KDC1 232130Z 27012KT 22/M10 A3003 RMK A01 T02241095  RH  011%=      5-min Rain = 0
KDC1 232131Z 26011KT 23/M09 A3003 RMK A01 T02251091  RH  011%=      5-min Rain = 0
KDC1 232132Z 26011KT 23/M09 A3003 RMK A01 T02271091  RH  011%=      5-min Rain = 0
KDC1 232133Z 27010G16KT 23/M09 A3003 RMK A01 T02261094  RH  011%=      5-min Rain = 0
KDC1 232134Z 26013G18KT 23/M09 A3003 RMK A01 T02271085  RH  012%=      5-min Rain = 0
KDC1 232135Z 26016KT 23/M09 A3003 RMK A01 T02281091  RH  011%=      5-min Rain = 0
KDC1 232136Z 27016KT 23/M09 A3003 RMK A01 T02271089  RH  011%=      5-min Rain = 0
KDC1 232137Z 28016KT 23/M10 A3003 RMK A01 T02261097  RH  011%=      5-min Rain = 0
KDC1 232138Z 26013KT 23/M09 A3003 RMK A01 T02271094  RH  011%=      5-min Rain = 0
KDC1 232139Z 26012KT 23/M09 A3003 RMK A01 T02281092  RH  011%=      5-min Rain = 0
KDC1 232140Z 26010KT 23/M09 A3003 RMK A01 T02271093  RH  011%=      5-min Rain = 0
KDC1 232141Z 26009KT 23/M10 A3003 RMK A01 T02261097  RH  011%=      5-min Rain = 0
KDC1 232142Z 26009KT 23/M10 A3003 RMK A01 T02261095  RH  011%=      5-min Rain = 0
KDC1 232143Z 26007KT 23/M10 A3003 RMK A01 T02261097  RH  011%=      5-min Rain = 0
KDC1 232144Z 26007KT 22/M10 A3003 RMK A01 T02241102  RH  010%=      5-min Rain = 0
KDC1 232145Z 27008KT 22/M10 A3003 RMK A01 T02231100  RH  011%=      5-min Rain = 0
KDC1 232146Z 26008KT 22/M10 A3002 RMK A01 T02211099  RH  011%=      5-min Rain = 0
KDC1 232147Z 24010G15KT 22/M10 A3002 RMK A01 T02221095  RH  011%=      5-min Rain = 0
KDC1 232148Z 26013KT 23/M09 A3002 RMK A01 T02251091  RH  011%=      5-min Rain = 0
KDC1 232149Z 26011G16KT 23/M09 A3002 RMK A01 T02281087  RH  011%=      5-min Rain = 0
KDC1 232150Z 25014KT 23/M09 A3002 RMK A01 T02291090  RH  011%=      5-min Rain = 0
KDC1 232151Z 26011KT 23/M10 A3002 RMK A01 T02281095  RH  011%=      5-min Rain = 0
KDC1 232152Z 27012KT 23/M09 A3002 RMK A01 T02271092  RH  011%=      5-min Rain = 0
KDC1 232153Z 26010KT 23/M09 A3002 RMK A01 T02271088  RH  011%=      5-min Rain = 0
KDC1 232154Z 25010KT 23/M09 A3002 RMK A01 T02281092  RH  011%=      5-min Rain = 0
KDC1 232155Z 24010KT 23/M10 A3002 RMK A01 T02281097  RH  011%=      5-min Rain = 0
KDC1 232156Z 24007KT 23/M10 A3002 RMK A01 T02271101  RH  010%=      5-min Rain = 0
KDC1 232157Z 25008KT 23/M10 A3002 RMK A01 T02271097  RH  011%=      5-min Rain = 0
KDC1 232158Z 26012KT 23/M10 A3002 RMK A01 T02281095  RH  011%=      5-min Rain = 0
KDC1 232159Z 26013KT 23/M09 A3002 RMK A01 T02281087  RH  011%=      5-min Rain = 0
KDC1 232200Z 25014KT 23/M10 A3002 RMK A01 T02271095  RH  011%=      5-min Rain = 0
KDC1 232201Z 25011KT 23/M10 A3002 RMK A01 T02261104  RH  010%=      5-min Rain = 0
KDC1 232202Z 26012KT 23/M10 A3002 RMK A01 T02251103  RH  010%=      5-min Rain = 0
KDC1 232203Z 26010KT 22/M11 A3002 RMK A01 T02241109  RH  010%=      5-min Rain = 0
KDC1 232204Z 27011KT 22/M10 A3002 RMK A01 T02231099  RH  011%=      5-min Rain = 0
KDC1 232205Z 26011KT 23/M09 A3002 RMK A01 T02261087  RH  012%=      5-min Rain = 0
KDC1 232206Z 26011KT 23/M09 A3002 RMK A01 T02281092  RH  011%=      5-min Rain = 0
KDC1 232207Z 26010KT 23/M09 A3002 RMK A01 T02271093  RH  011%=      5-min Rain = 0
KDC1 232208Z 25008KT 23/M10 A3002 RMK A01 T02261097  RH  011%=      5-min Rain = 0
KDC1 232209Z 26008KT 22/M10 A3002 RMK A01 T02241098  RH  011%=      5-min Rain = 0
KDC1 232210Z 27006KT 22/M09 A3002 RMK A01 T02231093  RH  011%=      5-min Rain = 0
KDC1 232211Z 27006KT 22/M09 A3002 RMK A01 T02241090  RH  011%=      5-min Rain = 0
KDC1 232212Z 26006KT 23/M09 A3002 RMK A01 T02251089  RH  012%=      5-min Rain = 0
KDC1 232213Z 27008KT 22/M08 A3002 RMK A01 T02241081  RH  012%=      5-min Rain = 0
KDC1 232214Z 28009KT 23/M09 A3001 RMK A01 T02261091  RH  011%=      5-min Rain = 0
KDC1 232215Z 26013KT 23/M09 A3001 RMK A01 T02251092  RH  011%=      5-min Rain = 0
KDC1 232216Z 27012KT 23/M08 A3001 RMK A01 T02261083  RH  012%=      5-min Rain = 0
KDC1 232217Z 28014KT 23/M09 A3001 RMK A01 T02281085  RH  012%=      5-min Rain = 0
KDC1 232218Z 28014KT 23/M09 A3001 RMK A01 T02291088  RH  011%=      5-min Rain = 0
KDC1 232219Z 27010KT 23/M10 A3002 RMK A01 T02261098  RH  011%=      5-min Rain = 0
KDC1 232220Z 27008KT 22/M10 A3002 RMK A01 T02231097  RH  011%=      5-min Rain = 0
KDC1 232221Z 27007KT 22/M09 A3002 RMK A01 T02221094  RH  011%=      5-min Rain = 0
KDC1 232222Z 25007KT 22/M09 A3002 RMK A01 T02231086  RH  012%=      5-min Rain = 0
KDC1 232223Z 25008KT 22/M09 A3002 RMK A01 T02241087  RH  012%=      5-min Rain = 0
KDC1 232224Z 25010KT 22/M08 A3002 RMK A01 T02241084  RH  012%=      5-min Rain = 0
KDC1 232225Z 26009KT 22/M09 A3002 RMK A01 T02231088  RH  012%=      5-min Rain = 0
KDC1 232226Z 25010KT 22/M09 A3002 RMK A01 T02231086  RH  012%=      5-min Rain = 0
KDC1 232227Z 24011KT 23/M08 A3002 RMK A01 T02251081  RH  012%=      5-min Rain = 0
KDC1 232228Z 25009KT 23/M08 A3002 RMK A01 T02261081  RH  012%=      5-min Rain = 0
KDC1 232229Z 25011G16KT 23/M08 A3002 RMK A01 T02281077  RH  012%=      5-min Rain = 0
KDC1 232230Z 25014KT 23/M09 A3002 RMK A01 T02281091  RH  011%=      5-min Rain = 0
KDC1 232231Z 25010KT 23/M09 A3002 RMK A01 T02261092  RH  011%=      5-min Rain = 0
KDC1 232232Z 24008KT 23/M09 A3002 RMK A01 T02261089  RH  011%=      5-min Rain = 0
KDC1 232233Z 23007KT 23/M09 A3002 RMK A01 T02271088  RH  011%=      5-min Rain = 0
KDC1 232234Z 25007KT 23/M09 A3002 RMK A01 T02271088  RH  011%=      5-min Rain = 0
KDC1 232235Z 24005G11KT 23/M09 A3001 RMK A01 T02271087  RH  012%=      5-min Rain = 0
KDC1 232236Z 23011KT 23/M08 A3001 RMK A01 T02261084  RH  012%=      5-min Rain = 0
KDC1 232237Z 24009KT 23/M08 A3001 RMK A01 T02251083  RH  012%=      5-min Rain = 0
KDC1 232238Z 25011KT 22/M08 A3001 RMK A01 T02241082  RH  012%=      5-min Rain = 0
KDC1 232239Z 25011KT 22/M08 A3001 RMK A01 T02231081  RH  012%=      5-min Rain = 0
KDC1 232240Z 25012KT 22/M09 A3001 RMK A01 T02221087  RH  012%=      5-min Rain = 0
KDC1 232241Z 26008KT 22/M08 A3001 RMK A01 T02221079  RH  013%=      5-min Rain = 0
KDC1 232242Z 25009KT 23/M08 A3001 RMK A01 T02251077  RH  013%=      5-min Rain = 0
KDC1 232243Z 25011KT 23/M08 A3001 RMK A01 T02251076  RH  013%=      5-min Rain = 0
KDC1 232244Z 25008KT 23/M08 A3001 RMK A01 T02261084  RH  012%=      5-min Rain = 0
KDC1 232245Z 26011KT 23/M08 A3001 RMK A01 T02261084  RH  012%=      5-min Rain = 0
KDC1 232246Z 24012KT 23/M08 A3001 RMK A01 T02251084  RH  012%=      5-min Rain = 0
KDC1 232247Z 26014KT 22/M08 A3001 RMK A01 T02241079  RH  012%=      5-min Rain = 0
KDC1 232248Z 26013KT 22/M07 A3001 RMK A01 T02241071  RH  013%=      5-min Rain = 0
KDC1 232249Z 26015KT 22/M08 A3001 RMK A01 T02241080  RH  012%=      5-min Rain = 0
KDC1 232250Z 24011KT 22/M08 A3001 RMK A01 T02221082  RH  012%=      5-min Rain = 0
KDC1 232251Z 24011KT 22/M08 A3001 RMK A01 T02221083  RH  012%=      5-min Rain = 0
KDC1 232252Z 25011KT 22/M09 A3001 RMK A01 T02221091  RH  012%=      5-min Rain = 0
KDC1 232253Z 24010G15KT 22/M09 A3001 RMK A01 T02211090  RH  012%=      5-min Rain = 0
KDC1 232254Z 24008KT 22/M10 A3001 RMK A01 T02221097  RH  011%=      5-min Rain = 0
KDC1 232255Z 25009KT 22/M10 A3001 RMK A01 T02231098  RH  011%=      5-min Rain = 0
KDC1 232256Z 24011G19KT 23/M09 A3001 RMK A01 T02251087  RH  012%=      5-min Rain = 0
KDC1 232257Z 27013G18KT 23/M08 A3001 RMK A01 T02271084  RH  012%=      5-min Rain = 0
KDC1 232258Z 26012KT 23/M08 A3001 RMK A01 T02271084  RH  012%=      5-min Rain = 0
KDC1 232259Z 26011KT 23/M09 A3001 RMK A01 T02261088  RH  011%=      5-min Rain = 0
KDC1 232300Z 26011KT 23/M08 A3001 RMK A01 T02251083  RH  012%=      5-min Rain = 0
KDC1 232301Z 27012KT 23/M08 A3001 RMK A01 T02251081  RH  012%=      5-min Rain = 0
KDC1 232302Z 26012KT 23/M09 A3001 RMK A01 T02251085  RH  012%=      5-min Rain = 0
KDC1 232303Z 25012KT 23/M08 A3001 RMK A01 T02261083  RH  012%=      5-min Rain = 0
KDC1 232304Z 25009KT 23/M08 A3001 RMK A01 T02271083  RH  012%=      5-min Rain = 0
KDC1 232305Z 24010KT 23/M09 A3001 RMK A01 T02281086  RH  012%=      5-min Rain = 0
KDC1 232306Z 26013KT 23/M09 A3001 RMK A01 T02271089  RH  011%=      5-min Rain = 0
KDC1 232307Z 26012KT 23/M09 A3001 RMK A01 T02261089  RH  011%=      5-min Rain = 0
KDC1 232308Z 27014KT 23/M09 A3001 RMK A01 T02261088  RH  012%=      5-min Rain = 0
KDC1 232309Z 26014KT 23/M09 A3001 RMK A01 T02251086  RH  012%=      5-min Rain = 0
KDC1 232310Z 26013KT 23/M08 A3001 RMK A01 T02251083  RH  012%=      5-min Rain = 0
KDC1 232311Z 25010KT 22/M09 A3001 RMK A01 T02241087  RH  012%=      5-min Rain = 0
KDC1 232312Z 26013KT 22/M08 A3001 RMK A01 T02231082  RH  012%=      5-min Rain = 0
KDC1 232313Z 27012KT 22/M08 A3001 RMK A01 T02231083  RH  012%=      5-min Rain = 0
KDC1 232314Z 27015KT 22/M08 A3001 RMK A01 T02231081  RH  012%=      5-min Rain = 0
KDC1 232315Z 28013KT 22/M08 A3001 RMK A01 T02241084  RH  012%=      5-min Rain = 0
KDC1 232316Z 27013KT 22/M09 A3001 RMK A01 T02231087  RH  012%=      5-min Rain = 0
KDC1 232317Z 27013KT 22/M08 A3001 RMK A01 T02231083  RH  012%=      5-min Rain = 0
KDC1 232318Z 26012KT 22/M09 A3001 RMK A01 T02221085  RH  012%=      5-min Rain = 0
KDC1 232319Z 26009KT 22/M08 A3001 RMK A01 T02211080  RH  013%=      5-min Rain = 0
KDC1 232320Z 25009KT 22/M08 A3001 RMK A01 T02221080  RH  013%=      5-min Rain = 0
KDC1 232321Z 25009KT 22/M07 A3001 RMK A01 T02231073  RH  013%=      5-min Rain = 0
KDC1 232322Z 25010KT 22/M08 A3001 RMK A01 T02241075  RH  013%=      5-min Rain = 0
KDC1 232323Z 25008KT 22/M08 A3001 RMK A01 T02241080  RH  012%=      5-min Rain = 0
KDC1 232324Z 25011KT 22/M08 A3001 RMK A01 T02241078  RH  013%=      5-min Rain = 0
KDC1 232325Z 25011KT 22/M08 A3001 RMK A01 T02241075  RH  013%=      5-min Rain = 0
KDC1 232326Z 25011KT 22/M08 A3001 RMK A01 T02241076  RH  013%=      5-min Rain = 0
KDC1 232327Z 25011KT 22/M08 A3001 RMK A01 T02241076  RH  013%=      5-min Rain = 0
KDC1 232328Z 25012KT 22/M08 A3001 RMK A01 T02231075  RH  013%=      5-min Rain = 0
KDC1 232329Z 27011KT 22/M08 A3001 RMK A01 T02221075  RH  013%=      5-min Rain = 0
KDC1 232330Z 27013KT 22/M06 A3001 RMK A01 T02221064  RH  014%=      5-min Rain = 0
KDC1 232331Z 27016KT 22/M07 A3001 RMK A01 T02241072  RH  013%=      5-min Rain = 0
KDC1 232332Z 28013KT 22/M08 A3001 RMK A01 T02231079  RH  013%=      5-min Rain = 0
KDC1 232333Z 28011KT 22/M08 A3001 RMK A01 T02221077  RH  013%=      5-min Rain = 0
KDC1 232334Z 28011KT 22/M08 A3001 RMK A01 T02221078  RH  013%=      5-min Rain = 0
KDC1 232335Z 28009KT 22/M08 A3001 RMK A01 T02221082  RH  012%=      5-min Rain = 0
KDC1 232336Z 27009KT 22/M08 A3001 RMK A01 T02211079  RH  013%=      5-min Rain = 0
KDC1 232337Z 28011KT 22/M07 A3001 RMK A01 T02211074  RH  013%=      5-min Rain = 0
KDC1 232338Z 28012KT 22/M06 A3001 RMK A01 T02221062  RH  014%=      5-min Rain = 0
KDC1 232339Z 28012KT 22/M06 A3001 RMK A01 T02241059  RH  015%=      5-min Rain = 0
KDC1 232340Z 27014KT 22/M06 A3001 RMK A01 T02241062  RH  014%=      5-min Rain = 0
KDC1 232341Z 27013KT 22/M06 A3001 RMK A01 T02241057  RH  015%=      5-min Rain = 0
KDC1 232342Z 27010KT 22/M06 A3001 RMK A01 T02231058  RH  015%=      5-min Rain = 0
KDC1 232343Z 26009KT 22/M06 A3001 RMK A01 T02241061  RH  014%=      5-min Rain = 0
KDC1 232344Z 27010KT 22/M06 A3002 RMK A01 T02231062  RH  014%=      5-min Rain = 0
KDC1 232345Z 27009KT 22/M06 A3002 RMK A01 T02231056  RH  015%=      5-min Rain = 0
KDC1 232346Z 26010KT 22/M06 A3002 RMK A01 T02221056  RH  015%=      5-min Rain = 0
KDC1 232347Z 28010KT 22/M07 A3001 RMK A01 T02211065  RH  014%=      5-min Rain = 0
KDC1 232348Z 28012KT 22/M06 A3001 RMK A01 T02211064  RH  014%=      5-min Rain = 0
KDC1 232349Z 27012KT 22/M07 A3001 RMK A01 T02211067  RH  014%=      5-min Rain = 0
KDC1 232350Z 28014KT 22/M07 A3001 RMK A01 T02221065  RH  014%=      5-min Rain = 0
KDC1 232351Z 28012KT 22/M07 A3001 RMK A01 T02211067  RH  014%=      5-min Rain = 0
KDC1 232352Z 28011KT 22/M06 A3002 RMK A01 T02201064  RH  014%=      5-min Rain = 0
KDC1 232353Z 28010KT 22/M06 A3002 RMK A01 T02201059  RH  015%=      5-min Rain = 0
KDC1 232354Z 28009KT 22/M06 A3002 RMK A01 T02211064  RH  014%=      5-min Rain = 0
KDC1 232355Z 27012KT 22/M07 A3002 RMK A01 T02211066  RH  014%=      5-min Rain = 0
KDC1 232356Z 27010KT 22/M06 A3002 RMK A01 T02211061  RH  015%=      5-min Rain = 0
KDC1 232357Z 27011KT 22/M06 A3002 RMK A01 T02211058  RH  015%=      5-min Rain = 0
KDC1 232358Z 26009KT 22/M05 A3002 RMK A01 T02211048  RH  016%=      5-min Rain = 0
KDC1 232359Z 27012KT 22/M05 A3002 RMK A01 T02211053  RH  016%=      5-min Rain = 0
KDC1 240000Z 26008KT 22/M06 A3002 RMK A01 T02211057  RH  015%=      5-min Rain = 0
KDC1 240001Z 26009KT 22/M06 A3002 RMK A01 T02201055  RH  015%=      5-min Rain = 0
KDC1 240002Z 25009KT 22/M06 A3002 RMK A01 T02191057  RH  015%=      5-min Rain = 0
KDC1 240003Z 25009KT 22/M06 A3002 RMK A01 T02191059  RH  015%=      5-min Rain = 0
KDC1 240004Z 26010KT 22/M06 A3002 RMK A01 T02191059  RH  015%=      5-min Rain = 0
KDC1 240005Z 27008KT 22/M05 A3002 RMK A01 T02181054  RH  016%=      5-min Rain = 0
KDC1 240006Z 26008KT 22/M05 A3002 RMK A01 T02181053  RH  016%=      5-min Rain = 0
KDC1 240007Z 27007KT 22/M06 A3002 RMK A01 T02181057  RH  015%=      5-min Rain = 0
KDC1 240008Z 27008KT 22/M06 A3002 RMK A01 T02191060  RH  015%=      5-min Rain = 0
KDC1 240009Z 26007KT 22/M06 A3002 RMK A01 T02191063  RH  015%=      5-min Rain = 0
KDC1 240010Z 26007KT 22/M06 A3002 RMK A01 T02191059  RH  015%=      5-min Rain = 0
KDC1 240011Z 26008KT 22/M06 A3002 RMK A01 T02191057  RH  015%=      5-min Rain = 0
KDC1 240012Z 26007KT 22/M06 A3002 RMK A01 T02191058  RH  015%=      5-min Rain = 0
KDC1 240013Z 26006KT 22/M05 A3002 RMK A01 T02191051  RH  016%=      5-min Rain = 0
KDC1 240014Z 25007KT 22/M05 A3002 RMK A01 T02181047  RH  016%=      5-min Rain = 0
KDC1 240015Z 26006KT 22/M05 A3002 RMK A01 T02181053  RH  016%=      5-min Rain = 0
KDC1 240016Z 26007KT 22/M05 A3002 RMK A01 T02181048  RH  016%=      5-min Rain = 0
KDC1 240017Z 26007KT 22/M05 A3002 RMK A01 T02181046  RH  017%=      5-min Rain = 0
KDC1 240018Z 26007KT 22/M05 A3002 RMK A01 T02171045  RH  017%=      5-min Rain = 0
KDC1 240019Z 26007KT 22/M05 A3002 RMK A01 T02171051  RH  016%=      5-min Rain = 0
KDC1 240020Z 26007KT 22/M05 A3002 RMK A01 T02171050  RH  016%=      5-min Rain = 0
KDC1 240021Z 26008KT 22/M05 A3002 RMK A01 T02161049  RH  016%=      5-min Rain = 0
KDC1 240022Z 25009KT 22/M05 A3002 RMK A01 T02161053  RH  016%=      5-min Rain = 0
KDC1 240023Z 26010KT 22/M06 A3002 RMK A01 T02161056  RH  016%=      5-min Rain = 0
KDC1 240024Z 26012KT 22/M05 A3002 RMK A01 T02151051  RH  016%=      5-min Rain = 0
KDC1 240025Z 26011KT 21/M05 A3002 RMK A01 T02141048  RH  017%=      5-min Rain = 0
KDC1 240026Z 26010KT 21/M06 A3002 RMK A01 T02131056  RH  016%=      5-min Rain = 0
KDC1 240027Z 26010KT 21/M06 A3002 RMK A01 T02131058  RH  016%=      5-min Rain = 0
KDC1 240028Z 26010KT 21/M06 A3002 RMK A01 T02131056  RH  016%=      5-min Rain = 0
KDC1 240029Z 27012KT 21/M05 A3002 RMK A01 T02121054  RH  016%=      5-min Rain = 0
KDC1 240030Z 27011KT 21/M05 A3002 RMK A01 T02111048  RH  017%=      5-min Rain = 0
KDC1 240031Z 26011KT 21/M05 A3002 RMK A01 T02101045  RH  018%=      5-min Rain = 0
KDC1 240032Z 26010KT 21/M04 A3002 RMK A01 T02091043  RH  018%=      5-min Rain = 0
KDC1 240033Z 26010KT 21/M04 A3002 RMK A01 T02081044  RH  018%=      5-min Rain = 0
KDC1 240034Z 27008KT 21/M05 A3002 RMK A01 T02081047  RH  018%=      5-min Rain = 0
KDC1 240035Z 28009KT 21/M05 A3002 RMK A01 T02081053  RH  017%=      5-min Rain = 0
KDC1 240036Z 28010KT 21/M06 A3002 RMK A01 T02091059  RH  016%=      5-min Rain = 0
KDC1 240037Z 28011KT 21/M06 A3002 RMK A01 T02101062  RH  016%=      5-min Rain = 0
KDC1 240038Z 28009KT 21/M06 A3002 RMK A01 T02101064  RH  015%=      5-min Rain = 0
KDC1 240039Z 27008KT 21/M06 A3002 RMK A01 T02101060  RH  016%=      5-min Rain = 0
KDC1 240040Z 27009KT 21/M06 A3002 RMK A01 T02101061  RH  016%=      5-min Rain = 0
KDC1 240041Z 26010KT 21/M06 A3002 RMK A01 T02101060  RH  016%=      5-min Rain = 0
KDC1 240042Z 26011KT 21/M06 A3002 RMK A01 T02091059  RH  016%=      5-min Rain = 0
KDC1 240043Z 26010KT 21/M06 A3002 RMK A01 T02081058  RH  016%=      5-min Rain = 0
KDC1 240044Z 26010KT 21/M06 A3002 RMK A01 T02071055  RH  017%=      5-min Rain = 0
KDC1 240045Z 26012KT 21/M06 A3002 RMK A01 T02061055  RH  017%=      5-min Rain = 0
KDC1 240046Z 27013KT 21/M06 A3002 RMK A01 T02061058  RH  016%=      5-min Rain = 0
KDC1 240047Z 27012KT 21/M06 A3002 RMK A01 T02061061  RH  016%=      5-min Rain = 0
KDC1 240048Z 27012KT 21/M06 A3002 RMK A01 T02061064  RH  016%=      5-min Rain = 0
KDC1 240049Z 27012KT 21/M07 A3002 RMK A01 T02051067  RH  015%=      5-min Rain = 0
KDC1 240050Z 27012KT 21/M07 A3002 RMK A01 T02051067  RH  015%=      5-min Rain = 0
KDC1 240051Z 28012KT 21/M06 A3002 RMK A01 T02051064  RH  016%=      5-min Rain = 0
KDC1 240052Z 28013KT 21/M06 A3002 RMK A01 T02051062  RH  016%=      5-min Rain = 0
KDC1 240053Z 28013KT 20/M06 A3002 RMK A01 T02041060  RH  016%=      5-min Rain = 0
KDC1 240054Z 28012KT 20/M06 A3002 RMK A01 T02031062  RH  016%=      5-min Rain = 0
KDC1 240055Z 27011KT 20/M06 A3002 RMK A01 T02031057  RH  017%=      5-min Rain = 0
KDC1 240056Z 27012KT 20/M06 A3002 RMK A01 T02011055  RH  017%=      5-min Rain = 0
KDC1 240057Z 27011KT 20/M06 A3002 RMK A01 T02011059  RH  017%=      5-min Rain = 0
KDC1 240058Z 27011KT 20/M06 A3002 RMK A01 T02001062  RH  016%=      5-min Rain = 0
KDC1 240059Z 28010KT 20/M06 A3002 RMK A01 T02011060  RH  017%=      5-min Rain = 0
KDC1 240100Z 28009KT 20/M06 A3002 RMK A01 T01991057  RH  017%=      5-min Rain = 0
KDC1 240101Z 27009KT 20/M06 A3002 RMK A01 T01971057  RH  017%=      5-min Rain = 0
KDC1 240102Z 28010KT 20/M06 A3002 RMK A01 T01961057  RH  018%=      5-min Rain = 0
KDC1 240103Z 27009KT 20/M06 A3002 RMK A01 T01951057  RH  018%=      5-min Rain = 0
KDC1 240104Z 27009KT 19/M06 A3002 RMK A01 T01941056  RH  018%=      5-min Rain = 0
KDC1 240105Z 28009KT 19/M06 A3002 RMK A01 T01931055  RH  018%=      5-min Rain = 0
KDC1 240106Z 27009KT 19/M06 A3003 RMK A01 T01921055  RH  018%=      5-min Rain = 0
KDC1 240107Z 27009KT 19/M05 A3003 RMK A01 T01911053  RH  019%=      5-min Rain = 0
KDC1 240108Z 27008KT 19/M05 A3003 RMK A01 T01901054  RH  019%=      5-min Rain = 0
KDC1 240109Z 27008KT 19/M05 A3003 RMK A01 T01881054  RH  019%=      5-min Rain = 0
KDC1 240110Z 27007KT 19/M05 A3003 RMK A01 T01871053  RH  019%=      5-min Rain = 0
KDC1 240111Z 27008KT 19/M05 A3003 RMK A01 T01851053  RH  019%=      5-min Rain = 0
KDC1 240112Z 27007KT 18/M06 A3003 RMK A01 T01841055  RH  019%=      5-min Rain = 0
KDC1 240113Z 27007KT 18/M06 A3003 RMK A01 T01841057  RH  019%=      5-min Rain = 0
KDC1 240114Z 27008KT 18/M06 A3003 RMK A01 T01841057  RH  019%=      5-min Rain = 0
KDC1 240115Z 27008KT 18/M06 A3003 RMK A01 T01831056  RH  019%=      5-min Rain = 0
KDC1 240116Z 27007KT 18/M06 A3003 RMK A01 T01831056  RH  019%=      5-min Rain = 0
KDC1 240117Z 27007KT 18/M06 A3003 RMK A01 T01821057  RH  019%=      5-min Rain = 0
KDC1 240118Z 26007KT 18/M05 A3003 RMK A01 T01811050  RH  020%=      5-min Rain = 0
KDC1 240119Z 26007KT 18/M05 A3003 RMK A01 T01811046  RH  021%=      5-min Rain = 0
KDC1 240120Z 27008KT 18/M05 A3003 RMK A01 T01801046  RH  021%=      5-min Rain = 0
KDC1 240121Z 27008KT 18/M04 A3003 RMK A01 T01791043  RH  022%=      5-min Rain = 0
KDC1 240122Z 27008KT 18/M04 A3003 RMK A01 T01781039  RH  023%=      5-min Rain = 0
KDC1 240123Z 27008KT 18/M04 A3003 RMK A01 T01771038  RH  023%=      5-min Rain = 0
KDC1 240124Z 27008KT 18/M04 A3003 RMK A01 T01761039  RH  023%=      5-min Rain = 0
KDC1 240125Z 27009KT 18/M04 A3003 RMK A01 T01751039  RH  023%=      5-min Rain = 0
KDC1 240126Z 27008KT 17/M04 A3003 RMK A01 T01741037  RH  023%=      5-min Rain = 0
KDC1 240127Z 27008KT 17/M04 A3003 RMK A01 T01731037  RH  023%=      5-min Rain = 0
KDC1 240128Z 27007KT 17/M04 A3003 RMK A01 T01731042  RH  023%=      5-min Rain = 0
KDC1 240129Z 27007KT 17/M04 A3003 RMK A01 T01721044  RH  022%=      5-min Rain = 0
KDC1 240130Z 27007KT 17/M04 A3003 RMK A01 T01721041  RH  023%=      5-min Rain = 0
KDC1 240131Z 27007KT 17/M04 A3003 RMK A01 T01711041  RH  023%=      5-min Rain = 0
KDC1 240132Z 27007KT 17/M04 A3003 RMK A01 T01711040  RH  023%=      5-min Rain = 0
KDC1 240133Z 27007KT 17/M04 A3003 RMK A01 T01711038  RH  024%=      5-min Rain = 0
KDC1 240134Z 27007KT 17/M04 A3003 RMK A01 T01701038  RH  024%=      5-min Rain = 0
KDC1 240135Z 26007KT 17/M04 A3003 RMK A01 T01701041  RH  023%=      5-min Rain = 0
KDC1 240136Z 26007KT 17/M05 A3003 RMK A01 T01711047  RH  022%=      5-min Rain = 0
KDC1 240137Z 26007KT 17/M05 A3003 RMK A01 T01731049  RH  022%=      5-min Rain = 0
KDC1 240138Z 26006KT 17/M05 A3003 RMK A01 T01741049  RH  021%=      5-min Rain = 0
KDC1 240139Z 26006KT 17/M05 A3003 RMK A01 T01741050  RH  021%=      5-min Rain = 0
KDC1 240140Z 26005KT 17/M05 A3003 RMK A01 T01741051  RH  021%=      5-min Rain = 0
KDC1 240141Z 26005KT 17/M05 A3003 RMK A01 T01741051  RH  021%=      5-min Rain = 0
KDC1 240142Z 26006KT 17/M05 A3003 RMK A01 T01741050  RH  021%=      5-min Rain = 0
KDC1 240143Z 26005KT 17/M05 A3003 RMK A01 T01731049  RH  022%=      5-min Rain = 0
KDC1 240144Z 25005KT 17/M05 A3003 RMK A01 T01731050  RH  021%=      5-min Rain = 0
KDC1 240145Z 25004KT 17/M05 A3004 RMK A01 T01731051  RH  021%=      5-min Rain = 0
KDC1 240146Z 25004KT 17/M05 A3004 RMK A01 T01731045  RH  022%=      5-min Rain = 0
KDC1 240147Z 25004KT 17/M04 A3004 RMK A01 T01721041  RH  023%=      5-min Rain = 0
KDC1 240148Z 25004KT 17/M04 A3004 RMK A01 T01701039  RH  024%=      5-min Rain = 0
KDC1 240149Z 25004KT 17/M04 A3004 RMK A01 T01691042  RH  023%=      5-min Rain = 0
KDC1 240150Z 25003KT 17/M04 A3004 RMK A01 T01681040  RH  024%=      5-min Rain = 0
KDC1 240151Z 25003KT 17/M04 A3004 RMK A01 T01661040  RH  024%=      5-min Rain = 0
KDC1 240152Z 24003KT 17/M04 A3004 RMK A01 T01651039  RH  024%=      5-min Rain = 0
KDC1 240153Z 24003KT 16/M04 A3004 RMK A01 T01641043  RH  024%=      5-min Rain = 0
KDC1 240154Z 24003KT 16/M05 A3004 RMK A01 T01641047  RH  023%=      5-min Rain = 0
KDC1 240155Z 24003KT 16/M05 A3004 RMK A01 T01641049  RH  023%=      5-min Rain = 0
KDC1 240156Z 25003KT 17/M05 A3004 RMK A01 T01651049  RH  023%=      5-min Rain = 0
KDC1 240157Z 25003KT 17/M05 A3004 RMK A01 T01651049  RH  023%=      5-min Rain = 0
KDC1 240158Z 25003KT 17/M05 A3004 RMK A01 T01651048  RH  023%=      5-min Rain = 0
KDC1 240159Z 23002KT 17/M05 A3004 RMK A01 T01651047  RH  023%=      5-min Rain = 0
KDC1 240200Z 22002KT 17/M04 A3004 RMK A01 T01651041  RH  024%=      5-min Rain = 0
KDC1 240201Z 22003KT 17/M05 A3004 RMK A01 T01651051  RH  022%=      5-min Rain = 0
KDC1 240202Z 21002KT 17/M05 A3004 RMK A01 T01671053  RH  022%=      5-min Rain = 0
KDC1 240203Z 22002KT 17/M05 A3004 RMK A01 T01691052  RH  022%=      5-min Rain = 0
KDC1 240204Z 23003KT 17/M05 A3004 RMK A01 T01711054  RH  021%=      5-min Rain = 0
KDC1 240205Z 21003KT 17/M05 A3004 RMK A01 T01721054  RH  021%=      5-min Rain = 0
KDC1 240206Z 22003KT 17/M05 A3004 RMK A01 T01731051  RH  021%=      5-min Rain = 0
KDC1 240207Z 22003KT 17/M05 A3004 RMK A01 T01731053  RH  021%=      5-min Rain = 0
KDC1 240208Z 22003KT 17/M06 A3004 RMK A01 T01731055  RH  021%=      5-min Rain = 0
KDC1 240209Z 21002KT 17/M06 A3004 RMK A01 T01731055  RH  021%=      5-min Rain = 0
KDC1 240210Z 21002KT 17/M05 A3004 RMK A01 T01731053  RH  021%=      5-min Rain = 0
KDC1 240211Z 20002KT 17/M05 A3004 RMK A01 T01731051  RH  021%=      5-min Rain = 0
KDC1 240212Z 22002KT 17/M05 A3004 RMK A01 T01721052  RH  021%=      5-min Rain = 0
KDC1 240213Z 23002KT 17/M05 A3004 RMK A01 T01711050  RH  022%=      5-min Rain = 0
KDC1 240214Z 23001KT 17/M05 A3005 RMK A01 T01691050  RH  022%=      5-min Rain = 0
KDC1 240215Z 23002KT 17/M05 A3005 RMK A01 T01681050  RH  022%=      5-min Rain = 0
KDC1 240216Z 23002KT 17/M05 A3005 RMK A01 T01661048  RH  023%=      5-min Rain = 0
KDC1 240217Z 22003KT 17/M05 A3005 RMK A01 T01651047  RH  023%=      5-min Rain = 0
KDC1 240218Z 22003KT 16/M05 A3005 RMK A01 T01631047  RH  023%=      5-min Rain = 0
KDC1 240219Z 21004KT 16/M05 A3005 RMK A01 T01631045  RH  024%=      5-min Rain = 0
KDC1 240220Z 22003KT 16/M05 A3005 RMK A01 T01631045  RH  024%=      5-min Rain = 0
KDC1 240221Z 22003KT 16/M05 A3005 RMK A01 T01641045  RH  024%=      5-min Rain = 0
KDC1 240222Z 22003KT 17/M05 A3005 RMK A01 T01651045  RH  023%=      5-min Rain = 0
KDC1 240223Z 23002KT 17/M05 A3005 RMK A01 T01661047  RH  023%=      5-min Rain = 0
KDC1 240224Z 24002KT 17/M05 A3005 RMK A01 T01661046  RH  023%=      5-min Rain = 0
KDC1 240225Z 23002KT 17/M04 A3005 RMK A01 T01661044  RH  023%=      5-min Rain = 0
KDC1 240226Z 23003KT 17/M04 A3005 RMK A01 T01651042  RH  024%=      5-min Rain = 0
KDC1 240227Z 24003KT 16/M04 A3005 RMK A01 T01631044  RH  024%=      5-min Rain = 0
KDC1 240228Z 25002KT 16/M04 A3005 RMK A01 T01621044  RH  024%=      5-min Rain = 0
KDC1 240229Z 25003KT 16/M04 A3005 RMK A01 T01611044  RH  024%=      5-min Rain = 0
KDC1 240230Z 23003KT 16/M05 A3005 RMK A01 T01601045  RH  024%=      5-min Rain = 0
KDC1 240231Z 23002KT 16/M04 A3005 RMK A01 T01591041  RH  025%=      5-min Rain = 0
KDC1 240232Z 24003KT 16/M04 A3005 RMK A01 T01581043  RH  025%=      5-min Rain = 0
KDC1 240233Z 24003KT 16/M04 A3005 RMK A01 T01581039  RH  025%=      5-min Rain = 0
KDC1 240234Z 25003KT 16/M04 A3005 RMK A01 T01571040  RH  026%=      5-min Rain = 0
KDC1 240235Z 26004KT 16/M04 A3005 RMK A01 T01561041  RH  026%=      5-min Rain = 0
KDC1 240236Z 26004KT 16/M04 A3005 RMK A01 T01551039  RH  026%=      5-min Rain = 0
KDC1 240237Z 26004KT 15/M04 A3005 RMK A01 T01541035  RH  027%=      5-min Rain = 0
KDC1 240238Z 26003KT 15/M03 A3005 RMK A01 T01511032  RH  028%=      5-min Rain = 0
KDC1 240239Z 25002KT 15/M03 A3005 RMK A01 T01491030  RH  029%=      5-min Rain = 0
KDC1 240240Z 25003KT 15/M03 A3005 RMK A01 T01471029  RH  030%=      5-min Rain = 0
KDC1 240241Z 25002KT 15/M03 A3005 RMK A01 T01451029  RH  030%=      5-min Rain = 0
KDC1 240242Z 25002KT 14/M03 A3006 RMK A01 T01431029  RH  030%=      5-min Rain = 0
KDC1 240243Z 24001KT 14/M03 A3006 RMK A01 T01421028  RH  031%=      5-min Rain = 0
KDC1 240244Z 26003KT 14/M03 A3006 RMK A01 T01401027  RH  031%=      5-min Rain = 0
KDC1 240245Z 25002KT 14/M03 A3006 RMK A01 T01391025  RH  032%=      5-min Rain = 0
KDC1 240246Z 25002KT 14/M02 A3006 RMK A01 T01371023  RH  033%=      5-min Rain = 0
KDC1 240247Z 25002KT 14/M02 A3006 RMK A01 T01361022  RH  033%=      5-min Rain = 0
KDC1 240248Z 26003KT 14/M02 A3006 RMK A01 T01361022  RH  034%=      5-min Rain = 0
KDC1 240249Z 26003KT 14/M02 A3006 RMK A01 T01351022  RH  034%=      5-min Rain = 0
KDC1 240250Z 27003KT 13/M02 A3006 RMK A01 T01341021  RH  034%=      5-min Rain = 0
KDC1 240251Z 27003KT 13/M02 A3006 RMK A01 T01341020  RH  034%=      5-min Rain = 0
KDC1 240252Z 27003KT 13/M02 A3006 RMK A01 T01331020  RH  035%=      5-min Rain = 0
KDC1 240253Z 27003KT 13/M02 A3006 RMK A01 T01331020  RH  035%=      5-min Rain = 0
KDC1 240254Z 27003KT 13/M02 A3006 RMK A01 T01321020  RH  035%=      5-min Rain = 0
KDC1 240255Z 27003KT 13/M02 A3006 RMK A01 T01311020  RH  035%=      5-min Rain = 0
KDC1 240256Z 27004KT 13/M02 A3006 RMK A01 T01311020  RH  035%=      5-min Rain = 0
KDC1 240257Z 27004KT 13/M02 A3006 RMK A01 T01311022  RH  035%=      5-min Rain = 0
KDC1 240258Z 27004KT 13/M02 A3006 RMK A01 T01311021  RH  035%=      5-min Rain = 0
KDC1 240259Z 27003KT 13/M02 A3006 RMK A01 T01311022  RH  035%=      5-min Rain = 0
KDC1 240300Z 28003KT 13/M02 A3006 RMK A01 T01311021  RH  035%=      5-min Rain = 0
KDC1 240301Z 28003KT 13/M02 A3006 RMK A01 T01321021  RH  035%=      5-min Rain = 0
KDC1 240302Z 28003KT 13/M02 A3006 RMK A01 T01311020  RH  035%=      5-min Rain = 0
KDC1 240303Z 27004KT 13/M02 A3006 RMK A01 T01321018  RH  035%=      5-min Rain = 0
KDC1 240304Z 26003KT 13/M02 A3006 RMK A01 T01311017  RH  036%=      5-min Rain = 0
KDC1 240305Z 27003KT 13/M02 A3006 RMK A01 T01301019  RH  036%=      5-min Rain = 0
KDC1 240306Z 28003KT 13/M02 A3006 RMK A01 T01301019  RH  035%=      5-min Rain = 0
KDC1 240307Z 28003KT 13/M02 A3006 RMK A01 T01301019  RH  036%=      5-min Rain = 0
KDC1 240308Z 29003KT 13/M02 A3006 RMK A01 T01291019  RH  036%=      5-min Rain = 0
KDC1 240309Z 30003KT 13/M02 A3006 RMK A01 T01291017  RH  036%=      5-min Rain = 0
KDC1 240310Z 31002KT 13/M02 A3006 RMK A01 T01281017  RH  037%=      5-min Rain = 0
KDC1 240311Z 28001KT 12/M02 A3006 RMK A01 T01241016  RH  038%=      5-min Rain = 0
KDC1 240312Z 25002KT 12/M02 A3006 RMK A01 T01221018  RH  038%=      5-min Rain = 0
KDC1 240313Z 27002KT 12/M02 A3006 RMK A01 T01201018  RH  038%=      5-min Rain = 0
KDC1 240314Z 22001KT 12/M02 A3006 RMK A01 T01191016  RH  039%=      5-min Rain = 0
KDC1 240315Z 20000KT 12/M01 A3006 RMK A01 T01181014  RH  040%=      5-min Rain = 0
KDC1 240316Z 23001KT 12/M02 A3006 RMK A01 T01171016  RH  039%=      5-min Rain = 0
KDC1 240317Z 12000KT 12/M02 A3006 RMK A01 T01171019  RH  039%=      5-min Rain = 0
KDC1 240318Z 19000KT 12/M02 A3007 RMK A01 T01171024  RH  037%=      5-min Rain = 0
KDC1 240319Z 21000KT 12/M03 A3007 RMK A01 T01151029  RH  036%=      5-min Rain = 0
KDC1 240320Z 00000KT 11/M03 A3007 RMK A01 T01141029  RH  037%=      5-min Rain = 0
KDC1 240321Z 00000KT 11/M03 A3007 RMK A01 T01131029  RH  037%=      5-min Rain = 0
KDC1 240322Z 00000KT 11/M03 A3007 RMK A01 T01121027  RH  038%=      5-min Rain = 0
KDC1 240323Z 25000KT 11/M02 A3007 RMK A01 T01131023  RH  039%=      5-min Rain = 0
KDC1 240324Z 25001KT 11/M02 A3006 RMK A01 T01131023  RH  038%=      5-min Rain = 0
KDC1 240325Z 00000KT 11/M02 A3006 RMK A01 T01131024  RH  038%=      5-min Rain = 0
KDC1 240326Z 28000KT 11/M03 A3007 RMK A01 T01121030  RH  037%=      5-min Rain = 0
KDC1 240327Z 29001KT 11/M03 A3007 RMK A01 T01101034  RH  036%=      5-min Rain = 0
KDC1 240328Z 30001KT 11/M03 A3007 RMK A01 T01081032  RH  037%=      5-min Rain = 0
KDC1 240329Z 30001KT 11/M03 A3007 RMK A01 T01081031  RH  038%=      5-min Rain = 0
KDC1 240330Z 31001KT 11/M03 A3007 RMK A01 T01081031  RH  038%=      5-min Rain = 0
KDC1 240331Z 31001KT 11/M03 A3007 RMK A01 T01071030  RH  038%=      5-min Rain = 0
KDC1 240332Z 32001KT 11/M03 A3007 RMK A01 T01071030  RH  038%=      5-min Rain = 0
KDC1 240333Z 32000KT 11/M03 A3007 RMK A01 T01071032  RH  037%=      5-min Rain = 0
KDC1 240334Z 34001KT 11/M03 A3007 RMK A01 T01081032  RH  037%=      5-min Rain = 0
KDC1 240335Z 35001KT 11/M03 A3007 RMK A01 T01081034  RH  037%=      5-min Rain = 0
KDC1 240336Z 33001KT 11/M04 A3007 RMK A01 T01091037  RH  036%=      5-min Rain = 0
KDC1 240337Z 32001KT 11/M04 A3007 RMK A01 T01111038  RH  035%=      5-min Rain = 0
KDC1 240338Z 33001KT 11/M04 A3007 RMK A01 T01121038  RH  035%=      5-min Rain = 0
KDC1 240339Z 33001KT 11/M04 A3007 RMK A01 T01131039  RH  034%=      5-min Rain = 0
KDC1 240340Z 33002KT 11/M04 A3007 RMK A01 T01141040  RH  034%=      5-min Rain = 0
KDC1 240341Z 34001KT 12/M04 A3007 RMK A01 T01151041  RH  033%=      5-min Rain = 0
KDC1 240342Z 35001KT 12/M04 A3007 RMK A01 T01161040  RH  033%=      5-min Rain = 0
KDC1 240343Z 00001KT 12/M04 A3007 RMK A01 T01171039  RH  033%=      5-min Rain = 0
KDC1 240344Z 36002KT 12/M04 A3007 RMK A01 T01171037  RH  034%=      5-min Rain = 0
KDC1 240345Z 35002KT 12/M04 A3007 RMK A01 T01171037  RH  034%=      5-min Rain = 0
KDC1 240346Z 34002KT 12/M04 A3007 RMK A01 T01171037  RH  034%=      5-min Rain = 0
KDC1 240347Z 33002KT 12/M04 A3007 RMK A01 T01161038  RH  034%=      5-min Rain = 0
KDC1 240348Z 33002KT 12/M04 A3007 RMK A01 T01161038  RH  034%=      5-min Rain = 0
KDC1 240349Z 33002KT 12/M04 A3007 RMK A01 T01151039  RH  034%=      5-min Rain = 0
KDC1 240350Z 33002KT 11/M04 A3007 RMK A01 T01141040  RH  034%=      5-min Rain = 0
KDC1 240351Z 31001KT 11/M04 A3007 RMK A01 T01141039  RH  034%=      5-min Rain = 0
KDC1 240352Z 29001KT 11/M04 A3007 RMK A01 T01141040  RH  034%=      5-min Rain = 0
KDC1 240353Z 31001KT 11/M04 A3007 RMK A01 T01141041  RH  033%=      5-min Rain = 0
KDC1 240354Z 32001KT 11/M04 A3007 RMK A01 T01141036  RH  035%=      5-min Rain = 0
KDC1 240355Z 33001KT 11/M03 A3007 RMK A01 T01141030  RH  036%=      5-min Rain = 0
KDC1 240356Z 33001KT 11/M03 A3007 RMK A01 T01131032  RH  036%=      5-min Rain = 0
KDC1 240357Z 33000KT 11/M03 A3007 RMK A01 T01121034  RH  036%=      5-min Rain = 0
KDC1 240358Z 00000KT 11/M04 A3007 RMK A01 T01111036  RH  035%=      5-min Rain = 0
KDC1 240359Z 00000KT 11/M04 A3007 RMK A01 T01111038  RH  035%=      5-min Rain = 0
KDC1 240400Z 00000KT 11/M04 A3007 RMK A01 T01111039  RH  035%=      5-min Rain = 0
KDC1 240401Z 00000KT 11/M03 A3007 RMK A01 T01111034  RH  036%=      5-min Rain = 0
KDC1 240402Z 00000KT 11/M03 A3007 RMK A01 T01111033  RH  036%=      5-min Rain = 0
KDC1 240403Z 19000KT 11/M03 A3007 RMK A01 T01101034  RH  036%=      5-min Rain = 0
KDC1 240404Z 18001KT 11/M04 A3007 RMK A01 T01101035  RH  036%=      5-min Rain = 0
KDC1 240405Z 18001KT 11/M04 A3007 RMK A01 T01101035  RH  036%=      5-min Rain = 0
KDC1 240406Z 18002KT 11/M04 A3007 RMK A01 T01101035  RH  036%=      5-min Rain = 0
KDC1 240407Z 17003KT 11/M04 A3007 RMK A01 T01101037  RH  035%=      5-min Rain = 0
KDC1 240408Z 18003KT 11/M04 A3007 RMK A01 T01111039  RH  035%=      5-min Rain = 0
KDC1 240409Z 22003KT 11/M04 A3007 RMK A01 T01121037  RH  035%=      5-min Rain = 0
KDC1 240410Z 23003KT 11/M03 A3007 RMK A01 T01131034  RH  035%=      5-min Rain = 0
KDC1 240411Z 23002KT 11/M04 A3007 RMK A01 T01141037  RH  034%=      5-min Rain = 0
KDC1 240412Z 23002KT 12/M04 A3007 RMK A01 T01161037  RH  034%=      5-min Rain = 0
KDC1 240413Z 23002KT 12/M03 A3007 RMK A01 T01161033  RH  035%=      5-min Rain = 0
KDC1 240414Z 24003KT 12/M03 A3007 RMK A01 T01151034  RH  035%=      5-min Rain = 0
KDC1 240415Z 25003KT 12/M03 A3007 RMK A01 T01151034  RH  035%=      5-min Rain = 0
KDC1 240416Z 25003KT 12/M03 A3007 RMK A01 T01161033  RH  035%=      5-min Rain = 0
KDC1 240417Z 25003KT 12/M03 A3007 RMK A01 T01151033  RH  035%=      5-min Rain = 0
KDC1 240418Z 25003KT 12/M03 A3007 RMK A01 T01161032  RH  035%=      5-min Rain = 0
KDC1 240419Z 25003KT 12/M03 A3007 RMK A01 T01161032  RH  035%=      5-min Rain = 0
KDC1 240420Z 25003KT 12/M03 A3007 RMK A01 T01161030  RH  036%=      5-min Rain = 0
KDC1 240421Z 24003KT 12/M03 A3007 RMK A01 T01151030  RH  036%=      5-min Rain = 0
KDC1 240422Z 25004KT 11/M03 A3007 RMK A01 T01141029  RH  037%=      5-min Rain = 0
KDC1 240423Z 25004KT 11/M03 A3007 RMK A01 T01131028  RH  037%=      5-min Rain = 0
KDC1 240424Z 25004KT 11/M03 A3007 RMK A01 T01121029  RH  037%=      5-min Rain = 0
KDC1 240425Z 23004KT 11/M03 A3007 RMK A01 T01111029  RH  037%=      5-min Rain = 0
KDC1 240426Z 24004KT 11/M03 A3007 RMK A01 T01101028  RH  038%=      5-min Rain = 0
KDC1 240427Z 24004KT 11/M03 A3007 RMK A01 T01101030  RH  037%=      5-min Rain = 0
KDC1 240428Z 24005KT 11/M04 A3007 RMK A01 T01111037  RH  035%=      5-min Rain = 0
KDC1 240429Z 23005KT 11/M04 A3007 RMK A01 T01131036  RH  035%=      5-min Rain = 0
KDC1 240430Z 23005KT 11/M04 A3007 RMK A01 T01141037  RH  035%=      5-min Rain = 0
KDC1 240431Z 22006KT 11/M04 A3007 RMK A01 T01141036  RH  035%=      5-min Rain = 0
KDC1 240432Z 24005KT 11/M04 A3007 RMK A01 T01121040  RH  034%=      5-min Rain = 0
KDC1 240433Z 25005KT 11/M04 A3007 RMK A01 T01121044  RH  033%=      5-min Rain = 0
KDC1 240434Z 25005KT 11/M05 A3007 RMK A01 T01131045  RH  033%=      5-min Rain = 0
KDC1 240435Z 25005KT 11/M04 A3007 RMK A01 T01121041  RH  034%=      5-min Rain = 0
KDC1 240436Z 25004KT 11/M04 A3007 RMK A01 T01091041  RH  035%=      5-min Rain = 0
KDC1 240437Z 26004KT 11/M05 A3007 RMK A01 T01081045  RH  034%=      5-min Rain = 0
KDC1 240438Z 26004KT 11/M05 A3007 RMK A01 T01081045  RH  034%=      5-min Rain = 0
KDC1 240439Z 26004KT 11/M05 A3007 RMK A01 T01091045  RH  034%=      5-min Rain = 0
KDC1 240440Z 26004KT 11/M04 A3007 RMK A01 T01091044  RH  034%=      5-min Rain = 0
KDC1 240441Z 27004KT 11/M04 A3007 RMK A01 T01101043  RH  034%=      5-min Rain = 0
KDC1 240442Z 27004KT 11/M04 A3007 RMK A01 T01101042  RH  034%=      5-min Rain = 0
KDC1 240443Z 27004KT 11/M04 A3007 RMK A01 T01091042  RH  034%=      5-min Rain = 0
KDC1 240444Z 27004KT 11/M04 A3007 RMK A01 T01091042  RH  034%=      5-min Rain = 0
KDC1 240445Z 28004KT 11/M04 A3007 RMK A01 T01091042  RH  034%=      5-min Rain = 0
KDC1 240446Z 28004KT 11/M04 A3007 RMK A01 T01081041  RH  035%=      5-min Rain = 0
KDC1 240447Z 28004KT 11/M04 A3007 RMK A01 T01071038  RH  036%=      5-min Rain = 0
KDC1 240448Z 28004KT 10/M04 A3007 RMK A01 T01041036  RH  037%=      5-min Rain = 0
KDC1 240449Z 28004KT 10/M04 A3007 RMK A01 T01021037  RH  037%=      5-min Rain = 0
KDC1 240450Z 28004KT 10/M04 A3007 RMK A01 T01011038  RH  037%=      5-min Rain = 0
KDC1 240451Z 28004KT 10/M04 A3007 RMK A01 T01001036  RH  038%=      5-min Rain = 0
KDC1 240452Z 28004KT 10/M03 A3007 RMK A01 T00971033  RH  040%=      5-min Rain = 0
KDC1 240453Z 29004KT 09/M04 A3007 RMK A01 T00941035  RH  040%=      5-min Rain = 0
KDC1 240454Z 30003KT 09/M04 A3007 RMK A01 T00931037  RH  040%=      5-min Rain = 0
KDC1 240455Z 29003KT 09/M04 A3007 RMK A01 T00931038  RH  039%=      5-min Rain = 0
KDC1 240456Z 29003KT 09/M04 A3007 RMK A01 T00921037  RH  040%=      5-min Rain = 0
KDC1 240457Z 29003KT 09/M04 A3007 RMK A01 T00901038  RH  040%=      5-min Rain = 0
KDC1 240458Z 29003KT 09/M04 A3007 RMK A01 T00871037  RH  041%=      5-min Rain = 0
KDC1 240459Z 29003KT 09/M04 A3007 RMK A01 T00851035  RH  043%=      5-min Rain = 0

Page generated in 0.0334 seconds.